<?xml version="1.0" encoding="UTF-8" standalone="no" ?>
<gpx xmlns="http://www.topografix.com/GPX/1/1" xmlns:xsi="http://www.w3.org/2001/XMLSchema-instance" xsi:schemaLocation="http://www.topografix.com/GPX/1/1 http://www.topografix.com/GPX/1/1/gpx.xsd" version="1.1" creator="VisuGPX - https://www.visugpx.com">
  <metadata>
    <name>AUTOUR DE LEOGNAN</name>
    <desc><![CDATA[Depart du lac bleu pour un tour leognan martillac]]></desc>
  </metadata>
  <trk>
    <name><![CDATA[Boucle Léognan Lac Bleu - Martillac - Saucats - 11676 - UtagawaVTT.com]]></name>
    <trkseg>
      <trkpt lat="44.72478" lon="-0.62079">
        <ele>54.155521</ele>
        <time>2016-01-17T09:02:53Z</time>
      </trkpt>
      <trkpt lat="44.7248" lon="-0.6202">
        <ele>53.26125</ele>
        <time>2016-01-17T09:03:07Z</time>
      </trkpt>
      <trkpt lat="44.72476" lon="-0.61931">
        <ele>52.951859</ele>
        <time>2016-01-17T09:03:25Z</time>
      </trkpt>
      <trkpt lat="44.72458" lon="-0.61871">
        <ele>52.19215</ele>
        <time>2016-01-17T09:03:37Z</time>
      </trkpt>
      <trkpt lat="44.72416" lon="-0.6168">
        <ele>50.195</ele>
        <time>2016-01-17T09:04:10Z</time>
      </trkpt>
      <trkpt lat="44.72411" lon="-0.61648">
        <ele>50.055</ele>
        <time>2016-01-17T09:04:15Z</time>
      </trkpt>
      <trkpt lat="44.72393" lon="-0.61529">
        <ele>49.5975</ele>
        <time>2016-01-17T09:04:34Z</time>
      </trkpt>
      <trkpt lat="44.72384" lon="-0.61481">
        <ele>49.171249</ele>
        <time>2016-01-17T09:04:44Z</time>
      </trkpt>
      <trkpt lat="44.72377" lon="-0.61463">
        <ele>48.718124</ele>
        <time>2016-01-17T09:04:48Z</time>
      </trkpt>
      <trkpt lat="44.72361" lon="-0.6144">
        <ele>47.986866</ele>
        <time>2016-01-17T09:04:53Z</time>
      </trkpt>
      <trkpt lat="44.72342" lon="-0.61404">
        <ele>47.375</ele>
        <time>2016-01-17T09:05:00Z</time>
      </trkpt>
      <trkpt lat="44.72319" lon="-0.61357">
        <ele>46.575626</ele>
        <time>2016-01-17T09:05:08Z</time>
      </trkpt>
      <trkpt lat="44.72301" lon="-0.61329">
        <ele>45.329376</ele>
        <time>2016-01-17T09:05:13Z</time>
      </trkpt>
      <trkpt lat="44.72273" lon="-0.61295">
        <ele>43.53075</ele>
        <time>2016-01-17T09:05:20Z</time>
      </trkpt>
      <trkpt lat="44.72264" lon="-0.61277">
        <ele>42.94043</ele>
        <time>2016-01-17T09:05:23Z</time>
      </trkpt>
      <trkpt lat="44.72233" lon="-0.61194">
        <ele>41.154221</ele>
        <time>2016-01-17T09:05:35Z</time>
      </trkpt>
      <trkpt lat="44.72227" lon="-0.61173">
        <ele>40.714424</ele>
        <time>2016-01-17T09:05:38Z</time>
      </trkpt>
      <trkpt lat="44.72219" lon="-0.61135">
        <ele>40.210751</ele>
        <time>2016-01-17T09:05:43Z</time>
      </trkpt>
      <trkpt lat="44.72195" lon="-0.61064">
        <ele>38.260624</ele>
        <time>2016-01-17T09:05:56Z</time>
      </trkpt>
      <trkpt lat="44.7219" lon="-0.61048">
        <ele>37.896873</ele>
        <time>2016-01-17T09:05:59Z</time>
      </trkpt>
      <trkpt lat="44.72177" lon="-0.61012">
        <ele>37.031876</ele>
        <time>2016-01-17T09:06:05Z</time>
      </trkpt>
      <trkpt lat="44.72167" lon="-0.60976">
        <ele>36.22625</ele>
        <time>2016-01-17T09:06:10Z</time>
      </trkpt>
      <trkpt lat="44.72156" lon="-0.60957">
        <ele>35.685806</ele>
        <time>2016-01-17T09:06:13Z</time>
      </trkpt>
      <trkpt lat="44.72125" lon="-0.60922">
        <ele>35.042862</ele>
        <time>2016-01-17T09:06:19Z</time>
      </trkpt>
      <trkpt lat="44.72106" lon="-0.60896">
        <ele>34.866852</ele>
        <time>2016-01-17T09:06:23Z</time>
      </trkpt>
      <trkpt lat="44.72096" lon="-0.60877">
        <ele>34.806965</ele>
        <time>2016-01-17T09:06:26Z</time>
      </trkpt>
      <trkpt lat="44.72086" lon="-0.6085">
        <ele>34.963459</ele>
        <time>2016-01-17T09:06:30Z</time>
      </trkpt>
      <trkpt lat="44.7208" lon="-0.60839">
        <ele>35.110001</ele>
        <time>2016-01-17T09:06:32Z</time>
      </trkpt>
      <trkpt lat="44.72069" lon="-0.60809">
        <ele>35.597713</ele>
        <time>2016-01-17T09:06:39Z</time>
      </trkpt>
      <trkpt lat="44.7206" lon="-0.60787">
        <ele>36.142242</ele>
        <time>2016-01-17T09:06:44Z</time>
      </trkpt>
      <trkpt lat="44.72057" lon="-0.60773">
        <ele>36.46875</ele>
        <time>2016-01-17T09:06:47Z</time>
      </trkpt>
      <trkpt lat="44.71997" lon="-0.60607">
        <ele>41.251251</ele>
        <time>2016-01-17T09:07:22Z</time>
      </trkpt>
      <trkpt lat="44.71994" lon="-0.60589">
        <ele>41.677502</ele>
        <time>2016-01-17T09:07:25Z</time>
      </trkpt>
      <trkpt lat="44.71993" lon="-0.60574">
        <ele>41.977501</ele>
        <time>2016-01-17T09:07:28Z</time>
      </trkpt>
      <trkpt lat="44.71994" lon="-0.6057">
        <ele>41.977501</ele>
        <time>2016-01-17T09:07:29Z</time>
      </trkpt>
      <trkpt lat="44.72056" lon="-0.605">
        <ele>40.725006</ele>
        <time>2016-01-17T09:07:48Z</time>
      </trkpt>
      <trkpt lat="44.72064" lon="-0.60494">
        <ele>40.426212</ele>
        <time>2016-01-17T09:07:50Z</time>
      </trkpt>
      <trkpt lat="44.72071" lon="-0.60487">
        <ele>40.172794</ele>
        <time>2016-01-17T09:07:52Z</time>
      </trkpt>
      <trkpt lat="44.72098" lon="-0.60443">
        <ele>39.61375</ele>
        <time>2016-01-17T09:08:02Z</time>
      </trkpt>
      <trkpt lat="44.72107" lon="-0.60426">
        <ele>39.522499</ele>
        <time>2016-01-17T09:08:06Z</time>
      </trkpt>
      <trkpt lat="44.72116" lon="-0.60397">
        <ele>39.459999</ele>
        <time>2016-01-17T09:08:12Z</time>
      </trkpt>
      <trkpt lat="44.72117" lon="-0.60391">
        <ele>39.424999</ele>
        <time>2016-01-17T09:08:14Z</time>
      </trkpt>
      <trkpt lat="44.72119" lon="-0.6039">
        <ele>39.349998</ele>
        <time>2016-01-17T09:08:16Z</time>
      </trkpt>
      <trkpt lat="44.7212" lon="-0.60392">
        <ele>39.32</ele>
        <time>2016-01-17T09:08:17Z</time>
      </trkpt>
      <trkpt lat="44.72118" lon="-0.60395">
        <ele>39.389999</ele>
        <time>2016-01-17T09:08:19Z</time>
      </trkpt>
      <trkpt lat="44.72116" lon="-0.60394">
        <ele>39.485001</ele>
        <time>2016-01-17T09:08:21Z</time>
      </trkpt>
      <trkpt lat="44.72119" lon="-0.6038">
        <ele>39.380001</ele>
        <time>2016-01-17T09:08:28Z</time>
      </trkpt>
      <trkpt lat="44.72114" lon="-0.60367">
        <ele>39.584999</ele>
        <time>2016-01-17T09:08:35Z</time>
      </trkpt>
      <trkpt lat="44.72105" lon="-0.60349">
        <ele>40.035</ele>
        <time>2016-01-17T09:08:47Z</time>
      </trkpt>
      <trkpt lat="44.72102" lon="-0.60338">
        <ele>40.348621</ele>
        <time>2016-01-17T09:08:53Z</time>
      </trkpt>
      <trkpt lat="44.72099" lon="-0.60334">
        <ele>40.659698</ele>
        <time>2016-01-17T09:08:57Z</time>
      </trkpt>
      <trkpt lat="44.72084" lon="-0.60291">
        <ele>42.637814</ele>
        <time>2016-01-17T09:09:14Z</time>
      </trkpt>
      <trkpt lat="44.7208" lon="-0.60274">
        <ele>43.288952</ele>
        <time>2016-01-17T09:09:19Z</time>
      </trkpt>
      <trkpt lat="44.72055" lon="-0.60113">
        <ele>44.901451</ele>
        <time>2016-01-17T09:09:55Z</time>
      </trkpt>
      <trkpt lat="44.72054" lon="-0.6009">
        <ele>44.990013</ele>
        <time>2016-01-17T09:10:00Z</time>
      </trkpt>
      <trkpt lat="44.72056" lon="-0.60076">
        <ele>45</ele>
        <time>2016-01-17T09:10:03Z</time>
      </trkpt>
      <trkpt lat="44.72056" lon="-0.60035">
        <ele>45</ele>
        <time>2016-01-17T09:10:11Z</time>
      </trkpt>
      <trkpt lat="44.72055" lon="-0.60025">
        <ele>45</ele>
        <time>2016-01-17T09:10:13Z</time>
      </trkpt>
      <trkpt lat="44.72057" lon="-0.59993">
        <ele>45</ele>
        <time>2016-01-17T09:10:19Z</time>
      </trkpt>
      <trkpt lat="44.72055" lon="-0.59975">
        <ele>45</ele>
        <time>2016-01-17T09:10:22Z</time>
      </trkpt>
      <trkpt lat="44.72054" lon="-0.59948">
        <ele>45</ele>
        <time>2016-01-17T09:10:27Z</time>
      </trkpt>
      <trkpt lat="44.7205" lon="-0.59918">
        <ele>45</ele>
        <time>2016-01-17T09:10:32Z</time>
      </trkpt>
      <trkpt lat="44.72053" lon="-0.59878">
        <ele>45</ele>
        <time>2016-01-17T09:10:39Z</time>
      </trkpt>
      <trkpt lat="44.72053" lon="-0.59859">
        <ele>45</ele>
        <time>2016-01-17T09:10:43Z</time>
      </trkpt>
      <trkpt lat="44.72049" lon="-0.5984">
        <ele>45.125</ele>
        <time>2016-01-17T09:10:47Z</time>
      </trkpt>
      <trkpt lat="44.72046" lon="-0.59831">
        <ele>45.312168</ele>
        <time>2016-01-17T09:10:49Z</time>
      </trkpt>
      <trkpt lat="44.72039" lon="-0.5982">
        <ele>45.726852</ele>
        <time>2016-01-17T09:10:52Z</time>
      </trkpt>
      <trkpt lat="44.72035" lon="-0.5981">
        <ele>46.022167</ele>
        <time>2016-01-17T09:10:55Z</time>
      </trkpt>
      <trkpt lat="44.72026" lon="-0.59797">
        <ele>46.412445</ele>
        <time>2016-01-17T09:10:59Z</time>
      </trkpt>
      <trkpt lat="44.72012" lon="-0.59768">
        <ele>46.927502</ele>
        <time>2016-01-17T09:11:07Z</time>
      </trkpt>
      <trkpt lat="44.72003" lon="-0.59746">
        <ele>47.25</ele>
        <time>2016-01-17T09:11:12Z</time>
      </trkpt>
      <trkpt lat="44.71999" lon="-0.5973">
        <ele>47.485001</ele>
        <time>2016-01-17T09:11:16Z</time>
      </trkpt>
      <trkpt lat="44.71996" lon="-0.59711">
        <ele>47.630001</ele>
        <time>2016-01-17T09:11:20Z</time>
      </trkpt>
      <trkpt lat="44.71984" lon="-0.59676">
        <ele>48.378071</ele>
        <time>2016-01-17T09:11:27Z</time>
      </trkpt>
      <trkpt lat="44.71978" lon="-0.59652">
        <ele>48.715492</ele>
        <time>2016-01-17T09:11:32Z</time>
      </trkpt>
      <trkpt lat="44.71961" lon="-0.59608">
        <ele>49.279999</ele>
        <time>2016-01-17T09:11:41Z</time>
      </trkpt>
      <trkpt lat="44.71951" lon="-0.5957">
        <ele>49.877583</ele>
        <time>2016-01-17T09:11:49Z</time>
      </trkpt>
      <trkpt lat="44.71939" lon="-0.59541">
        <ele>50.546989</ele>
        <time>2016-01-17T09:11:56Z</time>
      </trkpt>
      <trkpt lat="44.71931" lon="-0.59513">
        <ele>50.882061</ele>
        <time>2016-01-17T09:12:03Z</time>
      </trkpt>
      <trkpt lat="44.71922" lon="-0.59491">
        <ele>51.400539</ele>
        <time>2016-01-17T09:12:09Z</time>
      </trkpt>
      <trkpt lat="44.71915" lon="-0.59482">
        <ele>51.601837</ele>
        <time>2016-01-17T09:12:12Z</time>
      </trkpt>
      <trkpt lat="44.71915" lon="-0.59479">
        <ele>51.635452</ele>
        <time>2016-01-17T09:12:13Z</time>
      </trkpt>
      <trkpt lat="44.71918" lon="-0.59475">
        <ele>51.658718</ele>
        <time>2016-01-17T09:12:15Z</time>
      </trkpt>
      <trkpt lat="44.71919" lon="-0.59475">
        <ele>51.647228</ele>
        <time>2016-01-17T09:12:16Z</time>
      </trkpt>
      <trkpt lat="44.7192" lon="-0.59477">
        <ele>51.620022</ele>
        <time>2016-01-17T09:12:17Z</time>
      </trkpt>
      <trkpt lat="44.71919" lon="-0.59479">
        <ele>51.602852</ele>
        <time>2016-01-17T09:12:18Z</time>
      </trkpt>
      <trkpt lat="44.71901" lon="-0.59471">
        <ele>51.84222</ele>
        <time>2016-01-17T09:12:28Z</time>
      </trkpt>
      <trkpt lat="44.71901" lon="-0.59469">
        <ele>51.855076</ele>
        <time>2016-01-17T09:12:30Z</time>
      </trkpt>
      <trkpt lat="44.71903" lon="-0.59469">
        <ele>51.845486</ele>
        <time>2016-01-17T09:12:31Z</time>
      </trkpt>
      <trkpt lat="44.71903" lon="-0.59471">
        <ele>51.826328</ele>
        <time>2016-01-17T09:12:33Z</time>
      </trkpt>
      <trkpt lat="44.71894" lon="-0.59465">
        <ele>51.926594</ele>
        <time>2016-01-17T09:13:21Z</time>
      </trkpt>
      <trkpt lat="44.71885" lon="-0.59457">
        <ele>51.990704</ele>
        <time>2016-01-17T09:13:25Z</time>
      </trkpt>
      <trkpt lat="44.71825" lon="-0.59431">
        <ele>53</ele>
        <time>2016-01-17T09:13:46Z</time>
      </trkpt>
      <trkpt lat="44.7181" lon="-0.59422">
        <ele>53</ele>
        <time>2016-01-17T09:13:50Z</time>
      </trkpt>
      <trkpt lat="44.71802" lon="-0.59415">
        <ele>53</ele>
        <time>2016-01-17T09:13:52Z</time>
      </trkpt>
      <trkpt lat="44.71738" lon="-0.59371">
        <ele>52.914375</ele>
        <time>2016-01-17T09:14:07Z</time>
      </trkpt>
      <trkpt lat="44.71701" lon="-0.59343">
        <ele>52.54879</ele>
        <time>2016-01-17T09:14:16Z</time>
      </trkpt>
      <trkpt lat="44.71678" lon="-0.59331">
        <ele>52.729568</ele>
        <time>2016-01-17T09:14:22Z</time>
      </trkpt>
      <trkpt lat="44.71616" lon="-0.59284">
        <ele>52.644375</ele>
        <time>2016-01-17T09:14:41Z</time>
      </trkpt>
      <trkpt lat="44.71608" lon="-0.59284">
        <ele>52.646873</ele>
        <time>2016-01-17T09:14:44Z</time>
      </trkpt>
      <trkpt lat="44.71596" lon="-0.59279">
        <ele>52.579376</ele>
        <time>2016-01-17T09:14:48Z</time>
      </trkpt>
      <trkpt lat="44.71579" lon="-0.59279">
        <ele>52.581875</ele>
        <time>2016-01-17T09:14:53Z</time>
      </trkpt>
      <trkpt lat="44.71566" lon="-0.59281">
        <ele>52.633751</ele>
        <time>2016-01-17T09:14:57Z</time>
      </trkpt>
      <trkpt lat="44.71551" lon="-0.5928">
        <ele>52.634377</ele>
        <time>2016-01-17T09:15:02Z</time>
      </trkpt>
      <trkpt lat="44.71541" lon="-0.59283">
        <ele>52.678123</ele>
        <time>2016-01-17T09:15:05Z</time>
      </trkpt>
      <trkpt lat="44.71534" lon="-0.59281">
        <ele>52.650623</ele>
        <time>2016-01-17T09:15:07Z</time>
      </trkpt>
      <trkpt lat="44.71506" lon="-0.59282">
        <ele>52.382183</ele>
        <time>2016-01-17T09:15:14Z</time>
      </trkpt>
      <trkpt lat="44.71499" lon="-0.59281">
        <ele>52.273289</ele>
        <time>2016-01-17T09:15:16Z</time>
      </trkpt>
      <trkpt lat="44.71491" lon="-0.59276">
        <ele>52.12582</ele>
        <time>2016-01-17T09:15:19Z</time>
      </trkpt>
      <trkpt lat="44.71483" lon="-0.59267">
        <ele>52.011951</ele>
        <time>2016-01-17T09:15:23Z</time>
      </trkpt>
      <trkpt lat="44.71477" lon="-0.59257">
        <ele>52</ele>
        <time>2016-01-17T09:15:26Z</time>
      </trkpt>
      <trkpt lat="44.71461" lon="-0.5922">
        <ele>52</ele>
        <time>2016-01-17T09:15:35Z</time>
      </trkpt>
      <trkpt lat="44.71453" lon="-0.5921">
        <ele>52</ele>
        <time>2016-01-17T09:15:38Z</time>
      </trkpt>
      <trkpt lat="44.71445" lon="-0.59198">
        <ele>52</ele>
        <time>2016-01-17T09:15:42Z</time>
      </trkpt>
      <trkpt lat="44.71441" lon="-0.5919">
        <ele>52</ele>
        <time>2016-01-17T09:15:44Z</time>
      </trkpt>
      <trkpt lat="44.71436" lon="-0.59184">
        <ele>52.053959</ele>
        <time>2016-01-17T09:15:46Z</time>
      </trkpt>
      <trkpt lat="44.71429" lon="-0.59172">
        <ele>52.231621</ele>
        <time>2016-01-17T09:15:50Z</time>
      </trkpt>
      <trkpt lat="44.71424" lon="-0.59168">
        <ele>52.321468</ele>
        <time>2016-01-17T09:15:52Z</time>
      </trkpt>
      <trkpt lat="44.71416" lon="-0.59154">
        <ele>52.405674</ele>
        <time>2016-01-17T09:15:57Z</time>
      </trkpt>
      <trkpt lat="44.71399" lon="-0.59135">
        <ele>52.416252</ele>
        <time>2016-01-17T09:16:04Z</time>
      </trkpt>
      <trkpt lat="44.71363" lon="-0.59112">
        <ele>52.764088</ele>
        <time>2016-01-17T09:16:15Z</time>
      </trkpt>
      <trkpt lat="44.71355" lon="-0.59106">
        <ele>52.917339</ele>
        <time>2016-01-17T09:16:18Z</time>
      </trkpt>
      <trkpt lat="44.71346" lon="-0.59101">
        <ele>52.9646</ele>
        <time>2016-01-17T09:16:21Z</time>
      </trkpt>
      <trkpt lat="44.7134" lon="-0.59096">
        <ele>52.913105</ele>
        <time>2016-01-17T09:16:23Z</time>
      </trkpt>
      <trkpt lat="44.7133" lon="-0.5909">
        <ele>52.900383</ele>
        <time>2016-01-17T09:16:26Z</time>
      </trkpt>
      <trkpt lat="44.71313" lon="-0.59075">
        <ele>52.94389</ele>
        <time>2016-01-17T09:16:31Z</time>
      </trkpt>
      <trkpt lat="44.71306" lon="-0.59072">
        <ele>53</ele>
        <time>2016-01-17T09:16:33Z</time>
      </trkpt>
      <trkpt lat="44.71293" lon="-0.59061">
        <ele>53</ele>
        <time>2016-01-17T09:16:37Z</time>
      </trkpt>
      <trkpt lat="44.71289" lon="-0.59059">
        <ele>53</ele>
        <time>2016-01-17T09:16:38Z</time>
      </trkpt>
      <trkpt lat="44.71253" lon="-0.59031">
        <ele>53</ele>
        <time>2016-01-17T09:16:48Z</time>
      </trkpt>
      <trkpt lat="44.71235" lon="-0.59012">
        <ele>53</ele>
        <time>2016-01-17T09:16:53Z</time>
      </trkpt>
      <trkpt lat="44.7122" lon="-0.59001">
        <ele>53</ele>
        <time>2016-01-17T09:16:57Z</time>
      </trkpt>
      <trkpt lat="44.71213" lon="-0.58994">
        <ele>53</ele>
        <time>2016-01-17T09:16:59Z</time>
      </trkpt>
      <trkpt lat="44.71201" lon="-0.58987">
        <ele>53</ele>
        <time>2016-01-17T09:17:02Z</time>
      </trkpt>
      <trkpt lat="44.71177" lon="-0.58964">
        <ele>53</ele>
        <time>2016-01-17T09:17:10Z</time>
      </trkpt>
      <trkpt lat="44.7117" lon="-0.58964">
        <ele>53</ele>
        <time>2016-01-17T09:17:12Z</time>
      </trkpt>
      <trkpt lat="44.71168" lon="-0.58962">
        <ele>53</ele>
        <time>2016-01-17T09:17:13Z</time>
      </trkpt>
      <trkpt lat="44.71167" lon="-0.58958">
        <ele>53</ele>
        <time>2016-01-17T09:17:14Z</time>
      </trkpt>
      <trkpt lat="44.71187" lon="-0.58902">
        <ele>53</ele>
        <time>2016-01-17T09:17:26Z</time>
      </trkpt>
      <trkpt lat="44.71196" lon="-0.58865">
        <ele>53</ele>
        <time>2016-01-17T09:17:32Z</time>
      </trkpt>
      <trkpt lat="44.71221" lon="-0.58778">
        <ele>53</ele>
        <time>2016-01-17T09:17:46Z</time>
      </trkpt>
      <trkpt lat="44.71235" lon="-0.58739">
        <ele>53</ele>
        <time>2016-01-17T09:17:52Z</time>
      </trkpt>
      <trkpt lat="44.71256" lon="-0.58668">
        <ele>53</ele>
        <time>2016-01-17T09:18:02Z</time>
      </trkpt>
      <trkpt lat="44.71259" lon="-0.58654">
        <ele>52.968204</ele>
        <time>2016-01-17T09:18:04Z</time>
      </trkpt>
      <trkpt lat="44.71272" lon="-0.58613">
        <ele>52.339062</ele>
        <time>2016-01-17T09:18:10Z</time>
      </trkpt>
      <trkpt lat="44.71293" lon="-0.58551">
        <ele>52</ele>
        <time>2016-01-17T09:18:20Z</time>
      </trkpt>
      <trkpt lat="44.7131" lon="-0.58497">
        <ele>52.156517</ele>
        <time>2016-01-17T09:18:30Z</time>
      </trkpt>
      <trkpt lat="44.71321" lon="-0.58469">
        <ele>52.072395</ele>
        <time>2016-01-17T09:18:36Z</time>
      </trkpt>
      <trkpt lat="44.7137" lon="-0.58297">
        <ele>54.037731</ele>
        <time>2016-01-17T09:19:03Z</time>
      </trkpt>
      <trkpt lat="44.71375" lon="-0.58272">
        <ele>53.991776</ele>
        <time>2016-01-17T09:19:08Z</time>
      </trkpt>
      <trkpt lat="44.71384" lon="-0.58258">
        <ele>53.898655</ele>
        <time>2016-01-17T09:19:12Z</time>
      </trkpt>
      <trkpt lat="44.71409" lon="-0.58166">
        <ele>52.355</ele>
        <time>2016-01-17T09:19:27Z</time>
      </trkpt>
      <trkpt lat="44.71431" lon="-0.58095">
        <ele>53</ele>
        <time>2016-01-17T09:19:38Z</time>
      </trkpt>
      <trkpt lat="44.71436" lon="-0.58068">
        <ele>53</ele>
        <time>2016-01-17T09:19:42Z</time>
      </trkpt>
      <trkpt lat="44.71443" lon="-0.58049">
        <ele>53</ele>
        <time>2016-01-17T09:19:45Z</time>
      </trkpt>
      <trkpt lat="44.71451" lon="-0.58021">
        <ele>53</ele>
        <time>2016-01-17T09:19:49Z</time>
      </trkpt>
      <trkpt lat="44.71467" lon="-0.57974">
        <ele>53</ele>
        <time>2016-01-17T09:19:57Z</time>
      </trkpt>
      <trkpt lat="44.71471" lon="-0.57957">
        <ele>53</ele>
        <time>2016-01-17T09:20:00Z</time>
      </trkpt>
      <trkpt lat="44.71478" lon="-0.57946">
        <ele>53</ele>
        <time>2016-01-17T09:20:03Z</time>
      </trkpt>
      <trkpt lat="44.71487" lon="-0.57937">
        <ele>53</ele>
        <time>2016-01-17T09:20:06Z</time>
      </trkpt>
      <trkpt lat="44.71495" lon="-0.57923">
        <ele>53</ele>
        <time>2016-01-17T09:20:10Z</time>
      </trkpt>
      <trkpt lat="44.7156" lon="-0.57904">
        <ele>53</ele>
        <time>2016-01-17T09:20:26Z</time>
      </trkpt>
      <trkpt lat="44.71587" lon="-0.57893">
        <ele>52.470001</ele>
        <time>2016-01-17T09:20:32Z</time>
      </trkpt>
      <trkpt lat="44.71605" lon="-0.57889">
        <ele>52.07</ele>
        <time>2016-01-17T09:20:36Z</time>
      </trkpt>
      <trkpt lat="44.7167" lon="-0.57869">
        <ele>51.650002</ele>
        <time>2016-01-17T09:20:50Z</time>
      </trkpt>
      <trkpt lat="44.71693" lon="-0.5786">
        <ele>51.142502</ele>
        <time>2016-01-17T09:20:55Z</time>
      </trkpt>
      <trkpt lat="44.71885" lon="-0.57799">
        <ele>49</ele>
        <time>2016-01-17T09:21:37Z</time>
      </trkpt>
      <trkpt lat="44.71904" lon="-0.57796">
        <ele>49</ele>
        <time>2016-01-17T09:21:41Z</time>
      </trkpt>
      <trkpt lat="44.71979" lon="-0.57793">
        <ele>48.232986</ele>
        <time>2016-01-17T09:21:57Z</time>
      </trkpt>
      <trkpt lat="44.72008" lon="-0.57797">
        <ele>48.044266</ele>
        <time>2016-01-17T09:22:03Z</time>
      </trkpt>
      <trkpt lat="44.72022" lon="-0.57796">
        <ele>48</ele>
        <time>2016-01-17T09:22:06Z</time>
      </trkpt>
      <trkpt lat="44.72045" lon="-0.57799">
        <ele>48</ele>
        <time>2016-01-17T09:22:11Z</time>
      </trkpt>
      <trkpt lat="44.72072" lon="-0.57796">
        <ele>48</ele>
        <time>2016-01-17T09:22:17Z</time>
      </trkpt>
      <trkpt lat="44.721" lon="-0.57796">
        <ele>48</ele>
        <time>2016-01-17T09:22:24Z</time>
      </trkpt>
      <trkpt lat="44.72103" lon="-0.57795">
        <ele>48</ele>
        <time>2016-01-17T09:22:25Z</time>
      </trkpt>
      <trkpt lat="44.72108" lon="-0.57789">
        <ele>47.980316</ele>
        <time>2016-01-17T09:22:27Z</time>
      </trkpt>
      <trkpt lat="44.72117" lon="-0.57771">
        <ele>47.821049</ele>
        <time>2016-01-17T09:22:31Z</time>
      </trkpt>
      <trkpt lat="44.7212" lon="-0.5776">
        <ele>47.71962</ele>
        <time>2016-01-17T09:22:34Z</time>
      </trkpt>
      <trkpt lat="44.72123" lon="-0.57759">
        <ele>47.658676</ele>
        <time>2016-01-17T09:22:35Z</time>
      </trkpt>
      <trkpt lat="44.72126" lon="-0.5776">
        <ele>47.610714</ele>
        <time>2016-01-17T09:22:36Z</time>
      </trkpt>
      <trkpt lat="44.72128" lon="-0.57764">
        <ele>47.5956</ele>
        <time>2016-01-17T09:22:37Z</time>
      </trkpt>
      <trkpt lat="44.7213" lon="-0.57782">
        <ele>47.687576</ele>
        <time>2016-01-17T09:22:41Z</time>
      </trkpt>
      <trkpt lat="44.72134" lon="-0.57792">
        <ele>47.731388</ele>
        <time>2016-01-17T09:22:43Z</time>
      </trkpt>
      <trkpt lat="44.72139" lon="-0.57799">
        <ele>47.759739</ele>
        <time>2016-01-17T09:22:45Z</time>
      </trkpt>
      <trkpt lat="44.72147" lon="-0.57804">
        <ele>47.763611</ele>
        <time>2016-01-17T09:22:47Z</time>
      </trkpt>
      <trkpt lat="44.72152" lon="-0.57804">
        <ele>47.734295</ele>
        <time>2016-01-17T09:22:48Z</time>
      </trkpt>
      <trkpt lat="44.72178" lon="-0.57799">
        <ele>47.250664</ele>
        <time>2016-01-17T09:22:54Z</time>
      </trkpt>
      <trkpt lat="44.72192" lon="-0.57803">
        <ele>47.05283</ele>
        <time>2016-01-17T09:22:57Z</time>
      </trkpt>
      <trkpt lat="44.72197" lon="-0.57803">
        <ele>47</ele>
        <time>2016-01-17T09:22:58Z</time>
      </trkpt>
      <trkpt lat="44.72207" lon="-0.578">
        <ele>47</ele>
        <time>2016-01-17T09:23:00Z</time>
      </trkpt>
      <trkpt lat="44.72245" lon="-0.57793">
        <ele>47</ele>
        <time>2016-01-17T09:23:08Z</time>
      </trkpt>
      <trkpt lat="44.72425" lon="-0.57747">
        <ele>46</ele>
        <time>2016-01-17T09:23:44Z</time>
      </trkpt>
      <trkpt lat="44.72722" lon="-0.57676">
        <ele>45.722038</ele>
        <time>2016-01-17T09:24:43Z</time>
      </trkpt>
      <trkpt lat="44.72726" lon="-0.57677">
        <ele>45.784492</ele>
        <time>2016-01-17T09:24:44Z</time>
      </trkpt>
      <trkpt lat="44.72728" lon="-0.57679">
        <ele>45.836525</ele>
        <time>2016-01-17T09:24:45Z</time>
      </trkpt>
      <trkpt lat="44.7274" lon="-0.57726">
        <ele>46</ele>
        <time>2016-01-17T09:24:54Z</time>
      </trkpt>
      <trkpt lat="44.72764" lon="-0.57845">
        <ele>46</ele>
        <time>2016-01-17T09:25:11Z</time>
      </trkpt>
      <trkpt lat="44.72824" lon="-0.58114">
        <ele>43.759998</ele>
        <time>2016-01-17T09:25:54Z</time>
      </trkpt>
      <trkpt lat="44.72839" lon="-0.58166">
        <ele>42.56625</ele>
        <time>2016-01-17T09:26:03Z</time>
      </trkpt>
      <trkpt lat="44.72849" lon="-0.5819">
        <ele>41.963123</ele>
        <time>2016-01-17T09:26:08Z</time>
      </trkpt>
      <trkpt lat="44.72878" lon="-0.58265">
        <ele>40.543125</ele>
        <time>2016-01-17T09:26:21Z</time>
      </trkpt>
      <trkpt lat="44.72912" lon="-0.58351">
        <ele>39.405437</ele>
        <time>2016-01-17T09:26:34Z</time>
      </trkpt>
      <trkpt lat="44.72915" lon="-0.58357">
        <ele>39.407078</ele>
        <time>2016-01-17T09:26:35Z</time>
      </trkpt>
      <trkpt lat="44.72919" lon="-0.5836">
        <ele>39.45142</ele>
        <time>2016-01-17T09:26:36Z</time>
      </trkpt>
      <trkpt lat="44.72923" lon="-0.58361">
        <ele>39.525379</ele>
        <time>2016-01-17T09:26:37Z</time>
      </trkpt>
      <trkpt lat="44.72927" lon="-0.5836">
        <ele>39.610439</ele>
        <time>2016-01-17T09:26:38Z</time>
      </trkpt>
      <trkpt lat="44.72946" lon="-0.58348">
        <ele>39.992844</ele>
        <time>2016-01-17T09:26:45Z</time>
      </trkpt>
      <trkpt lat="44.72982" lon="-0.58339">
        <ele>41.153687</ele>
        <time>2016-01-17T09:26:54Z</time>
      </trkpt>
      <trkpt lat="44.72999" lon="-0.58333">
        <ele>41.723751</ele>
        <time>2016-01-17T09:26:58Z</time>
      </trkpt>
      <trkpt lat="44.73015" lon="-0.58325">
        <ele>42.221249</ele>
        <time>2016-01-17T09:27:02Z</time>
      </trkpt>
      <trkpt lat="44.73046" lon="-0.58298">
        <ele>42.807499</ele>
        <time>2016-01-17T09:27:10Z</time>
      </trkpt>
      <trkpt lat="44.73072" lon="-0.58282">
        <ele>42.237499</ele>
        <time>2016-01-17T09:27:16Z</time>
      </trkpt>
      <trkpt lat="44.73101" lon="-0.58275">
        <ele>42</ele>
        <time>2016-01-17T09:27:23Z</time>
      </trkpt>
      <trkpt lat="44.73112" lon="-0.58277">
        <ele>42</ele>
        <time>2016-01-17T09:27:26Z</time>
      </trkpt>
      <trkpt lat="44.73137" lon="-0.58272">
        <ele>42.130226</ele>
        <time>2016-01-17T09:27:34Z</time>
      </trkpt>
      <trkpt lat="44.73145" lon="-0.58284">
        <ele>42.177174</ele>
        <time>2016-01-17T09:27:40Z</time>
      </trkpt>
      <trkpt lat="44.73144" lon="-0.58306">
        <ele>42.041519</ele>
        <time>2016-01-17T09:27:46Z</time>
      </trkpt>
      <trkpt lat="44.73144" lon="-0.58387">
        <ele>41.2575</ele>
        <time>2016-01-17T09:28:03Z</time>
      </trkpt>
      <trkpt lat="44.73143" lon="-0.58409">
        <ele>40.888748</ele>
        <time>2016-01-17T09:28:07Z</time>
      </trkpt>
      <trkpt lat="44.73141" lon="-0.58645">
        <ele>37.641811</ele>
        <time>2016-01-17T09:28:50Z</time>
      </trkpt>
      <trkpt lat="44.7314" lon="-0.58665">
        <ele>36.476337</ele>
        <time>2016-01-17T09:28:54Z</time>
      </trkpt>
      <trkpt lat="44.73143" lon="-0.58672">
        <ele>36.230698</ele>
        <time>2016-01-17T09:28:56Z</time>
      </trkpt>
      <trkpt lat="44.73153" lon="-0.58681">
        <ele>36.278198</ele>
        <time>2016-01-17T09:29:00Z</time>
      </trkpt>
      <trkpt lat="44.73169" lon="-0.58699">
        <ele>36.121712</ele>
        <time>2016-01-17T09:29:07Z</time>
      </trkpt>
      <trkpt lat="44.73217" lon="-0.58759">
        <ele>34.805458</ele>
        <time>2016-01-17T09:29:21Z</time>
      </trkpt>
      <trkpt lat="44.73239" lon="-0.58783">
        <ele>34.265377</ele>
        <time>2016-01-17T09:29:26Z</time>
      </trkpt>
      <trkpt lat="44.73252" lon="-0.58795">
        <ele>33.752499</ele>
        <time>2016-01-17T09:29:29Z</time>
      </trkpt>
      <trkpt lat="44.73262" lon="-0.588">
        <ele>33.362499</ele>
        <time>2016-01-17T09:29:31Z</time>
      </trkpt>
      <trkpt lat="44.73285" lon="-0.58807">
        <ele>32.856251</ele>
        <time>2016-01-17T09:29:36Z</time>
      </trkpt>
      <trkpt lat="44.73329" lon="-0.58814">
        <ele>32.000713</ele>
        <time>2016-01-17T09:29:45Z</time>
      </trkpt>
      <trkpt lat="44.73355" lon="-0.58816">
        <ele>31.360575</ele>
        <time>2016-01-17T09:29:50Z</time>
      </trkpt>
      <trkpt lat="44.73364" lon="-0.58815">
        <ele>31.154856</ele>
        <time>2016-01-17T09:29:52Z</time>
      </trkpt>
      <trkpt lat="44.73368" lon="-0.58812">
        <ele>31.1301</ele>
        <time>2016-01-17T09:29:53Z</time>
      </trkpt>
      <trkpt lat="44.73374" lon="-0.58805">
        <ele>31.241526</ele>
        <time>2016-01-17T09:29:55Z</time>
      </trkpt>
      <trkpt lat="44.73379" lon="-0.58791">
        <ele>31.543709</ele>
        <time>2016-01-17T09:29:58Z</time>
      </trkpt>
      <trkpt lat="44.73382" lon="-0.58776">
        <ele>31.886974</ele>
        <time>2016-01-17T09:30:01Z</time>
      </trkpt>
      <trkpt lat="44.7338" lon="-0.58761">
        <ele>32.611408</ele>
        <time>2016-01-17T09:30:04Z</time>
      </trkpt>
      <trkpt lat="44.73367" lon="-0.58726">
        <ele>34.845028</ele>
        <time>2016-01-17T09:30:12Z</time>
      </trkpt>
      <trkpt lat="44.73353" lon="-0.58691">
        <ele>37.407501</ele>
        <time>2016-01-17T09:30:20Z</time>
      </trkpt>
      <trkpt lat="44.73347" lon="-0.5867">
        <ele>38.642502</ele>
        <time>2016-01-17T09:30:25Z</time>
      </trkpt>
      <trkpt lat="44.73347" lon="-0.58659">
        <ele>39.028748</ele>
        <time>2016-01-17T09:30:28Z</time>
      </trkpt>
      <trkpt lat="44.73353" lon="-0.58652">
        <ele>38.75375</ele>
        <time>2016-01-17T09:30:31Z</time>
      </trkpt>
      <trkpt lat="44.73381" lon="-0.58632">
        <ele>36.965267</ele>
        <time>2016-01-17T09:30:41Z</time>
      </trkpt>
      <trkpt lat="44.73415" lon="-0.5861">
        <ele>35.631218</ele>
        <time>2016-01-17T09:30:49Z</time>
      </trkpt>
      <trkpt lat="44.73426" lon="-0.58602">
        <ele>35.438213</ele>
        <time>2016-01-17T09:30:52Z</time>
      </trkpt>
      <trkpt lat="44.7349" lon="-0.58559">
        <ele>37.824375</ele>
        <time>2016-01-17T09:31:08Z</time>
      </trkpt>
      <trkpt lat="44.73515" lon="-0.5854">
        <ele>38.85125</ele>
        <time>2016-01-17T09:31:15Z</time>
      </trkpt>
      <trkpt lat="44.73519" lon="-0.58531">
        <ele>39.486248</ele>
        <time>2016-01-17T09:31:17Z</time>
      </trkpt>
      <trkpt lat="44.7352" lon="-0.58518">
        <ele>40.297501</ele>
        <time>2016-01-17T09:31:20Z</time>
      </trkpt>
      <trkpt lat="44.73522" lon="-0.58516">
        <ele>40.322498</ele>
        <time>2016-01-17T09:31:21Z</time>
      </trkpt>
      <trkpt lat="44.73579" lon="-0.58496">
        <ele>35.832512</ele>
        <time>2016-01-17T09:31:36Z</time>
      </trkpt>
      <trkpt lat="44.73594" lon="-0.58493">
        <ele>34.621582</ele>
        <time>2016-01-17T09:31:39Z</time>
      </trkpt>
      <trkpt lat="44.73609" lon="-0.58486">
        <ele>33.653248</ele>
        <time>2016-01-17T09:31:42Z</time>
      </trkpt>
      <trkpt lat="44.73618" lon="-0.58476">
        <ele>33.456963</ele>
        <time>2016-01-17T09:31:44Z</time>
      </trkpt>
      <trkpt lat="44.73623" lon="-0.58467">
        <ele>33.796696</ele>
        <time>2016-01-17T09:31:46Z</time>
      </trkpt>
      <trkpt lat="44.73623" lon="-0.58463">
        <ele>33.982601</ele>
        <time>2016-01-17T09:31:47Z</time>
      </trkpt>
      <trkpt lat="44.73618" lon="-0.58454">
        <ele>34.700783</ele>
        <time>2016-01-17T09:31:51Z</time>
      </trkpt>
      <trkpt lat="44.73601" lon="-0.58435">
        <ele>36.647789</ele>
        <time>2016-01-17T09:32:00Z</time>
      </trkpt>
      <trkpt lat="44.73565" lon="-0.58383">
        <ele>40.54475</ele>
        <time>2016-01-17T09:32:16Z</time>
      </trkpt>
      <trkpt lat="44.73556" lon="-0.58368">
        <ele>41.822266</ele>
        <time>2016-01-17T09:32:20Z</time>
      </trkpt>
      <trkpt lat="44.73551" lon="-0.58356">
        <ele>42.572994</ele>
        <time>2016-01-17T09:32:23Z</time>
      </trkpt>
      <trkpt lat="44.73539" lon="-0.58323">
        <ele>44.009998</ele>
        <time>2016-01-17T09:32:32Z</time>
      </trkpt>
      <trkpt lat="44.7352" lon="-0.58255">
        <ele>45.236252</ele>
        <time>2016-01-17T09:32:49Z</time>
      </trkpt>
      <trkpt lat="44.73504" lon="-0.58186">
        <ele>46</ele>
        <time>2016-01-17T09:33:06Z</time>
      </trkpt>
      <trkpt lat="44.73504" lon="-0.58191">
        <ele>46</ele>
        <time>2016-01-17T09:34:16Z</time>
      </trkpt>
      <trkpt lat="44.73495" lon="-0.58157">
        <ele>46</ele>
        <time>2016-01-17T09:34:25Z</time>
      </trkpt>
      <trkpt lat="44.73491" lon="-0.58136">
        <ele>46.018051</ele>
        <time>2016-01-17T09:34:30Z</time>
      </trkpt>
      <trkpt lat="44.73486" lon="-0.58119">
        <ele>46.095718</ele>
        <time>2016-01-17T09:34:34Z</time>
      </trkpt>
      <trkpt lat="44.73464" lon="-0.58035">
        <ele>45.321877</ele>
        <time>2016-01-17T09:34:52Z</time>
      </trkpt>
      <trkpt lat="44.73464" lon="-0.58031">
        <ele>45.258751</ele>
        <time>2016-01-17T09:34:53Z</time>
      </trkpt>
      <trkpt lat="44.73466" lon="-0.58028">
        <ele>45.208752</ele>
        <time>2016-01-17T09:34:54Z</time>
      </trkpt>
      <trkpt lat="44.73538" lon="-0.5801">
        <ele>43.922501</ele>
        <time>2016-01-17T09:35:12Z</time>
      </trkpt>
      <trkpt lat="44.73557" lon="-0.58004">
        <ele>43.377499</ele>
        <time>2016-01-17T09:35:16Z</time>
      </trkpt>
      <trkpt lat="44.73572" lon="-0.58003">
        <ele>43.028126</ele>
        <time>2016-01-17T09:35:19Z</time>
      </trkpt>
      <trkpt lat="44.73601" lon="-0.57993">
        <ele>42.203751</ele>
        <time>2016-01-17T09:35:25Z</time>
      </trkpt>
      <trkpt lat="44.7361" lon="-0.57987">
        <ele>41.91</ele>
        <time>2016-01-17T09:35:27Z</time>
      </trkpt>
      <trkpt lat="44.73641" lon="-0.57959">
        <ele>40.800766</ele>
        <time>2016-01-17T09:35:34Z</time>
      </trkpt>
      <trkpt lat="44.73649" lon="-0.57949">
        <ele>40.699062</ele>
        <time>2016-01-17T09:35:36Z</time>
      </trkpt>
      <trkpt lat="44.73663" lon="-0.57924">
        <ele>40.728413</ele>
        <time>2016-01-17T09:35:40Z</time>
      </trkpt>
      <trkpt lat="44.73667" lon="-0.5792">
        <ele>40.744564</ele>
        <time>2016-01-17T09:35:41Z</time>
      </trkpt>
      <trkpt lat="44.73725" lon="-0.57899">
        <ele>40.075409</ele>
        <time>2016-01-17T09:35:51Z</time>
      </trkpt>
      <trkpt lat="44.73745" lon="-0.57889">
        <ele>40.590816</ele>
        <time>2016-01-17T09:35:55Z</time>
      </trkpt>
      <trkpt lat="44.7376" lon="-0.57884">
        <ele>40.862</ele>
        <time>2016-01-17T09:35:58Z</time>
      </trkpt>
      <trkpt lat="44.73801" lon="-0.57887">
        <ele>41</ele>
        <time>2016-01-17T09:36:06Z</time>
      </trkpt>
      <trkpt lat="44.73811" lon="-0.57886">
        <ele>41</ele>
        <time>2016-01-17T09:36:08Z</time>
      </trkpt>
      <trkpt lat="44.73826" lon="-0.57887">
        <ele>40.724998</ele>
        <time>2016-01-17T09:36:11Z</time>
      </trkpt>
      <trkpt lat="44.73834" lon="-0.57893">
        <ele>40.535</ele>
        <time>2016-01-17T09:36:13Z</time>
      </trkpt>
      <trkpt lat="44.73837" lon="-0.57899">
        <ele>40.474998</ele>
        <time>2016-01-17T09:36:14Z</time>
      </trkpt>
      <trkpt lat="44.73842" lon="-0.57928">
        <ele>40.442719</ele>
        <time>2016-01-17T09:36:18Z</time>
      </trkpt>
      <trkpt lat="44.73845" lon="-0.57963">
        <ele>40.670082</ele>
        <time>2016-01-17T09:36:23Z</time>
      </trkpt>
      <trkpt lat="44.73845" lon="-0.57995">
        <ele>40.66626</ele>
        <time>2016-01-17T09:36:28Z</time>
      </trkpt>
      <trkpt lat="44.73843" lon="-0.5802">
        <ele>40.541973</ele>
        <time>2016-01-17T09:36:32Z</time>
      </trkpt>
      <trkpt lat="44.73849" lon="-0.58073">
        <ele>40.127689</ele>
        <time>2016-01-17T09:36:40Z</time>
      </trkpt>
      <trkpt lat="44.73847" lon="-0.58161">
        <ele>37.713749</ele>
        <time>2016-01-17T09:36:52Z</time>
      </trkpt>
      <trkpt lat="44.73849" lon="-0.5821">
        <ele>35.599998</ele>
        <time>2016-01-17T09:36:58Z</time>
      </trkpt>
      <trkpt lat="44.73853" lon="-0.58255">
        <ele>33.271011</ele>
        <time>2016-01-17T09:37:03Z</time>
      </trkpt>
      <trkpt lat="44.73857" lon="-0.58333">
        <ele>29.702843</ele>
        <time>2016-01-17T09:37:11Z</time>
      </trkpt>
      <trkpt lat="44.7386" lon="-0.58368">
        <ele>27.940001</ele>
        <time>2016-01-17T09:37:15Z</time>
      </trkpt>
      <trkpt lat="44.73864" lon="-0.58378">
        <ele>27.282499</ele>
        <time>2016-01-17T09:37:17Z</time>
      </trkpt>
      <trkpt lat="44.73872" lon="-0.58378">
        <ele>27.305</ele>
        <time>2016-01-17T09:37:19Z</time>
      </trkpt>
      <trkpt lat="44.73974" lon="-0.58319">
        <ele>28.13625</ele>
        <time>2016-01-17T09:37:45Z</time>
      </trkpt>
      <trkpt lat="44.73997" lon="-0.58308">
        <ele>27.875481</ele>
        <time>2016-01-17T09:37:51Z</time>
      </trkpt>
      <trkpt lat="44.74" lon="-0.58309">
        <ele>27.639494</ele>
        <time>2016-01-17T09:37:52Z</time>
      </trkpt>
      <trkpt lat="44.74002" lon="-0.58312">
        <ele>27.307199</ele>
        <time>2016-01-17T09:37:53Z</time>
      </trkpt>
      <trkpt lat="44.74014" lon="-0.58342">
        <ele>24.540728</ele>
        <time>2016-01-17T09:37:58Z</time>
      </trkpt>
      <trkpt lat="44.74029" lon="-0.58383">
        <ele>21.827858</ele>
        <time>2016-01-17T09:38:03Z</time>
      </trkpt>
      <trkpt lat="44.74036" lon="-0.58399">
        <ele>21.042332</ele>
        <time>2016-01-17T09:38:05Z</time>
      </trkpt>
      <trkpt lat="44.74053" lon="-0.58428">
        <ele>19.943125</ele>
        <time>2016-01-17T09:38:09Z</time>
      </trkpt>
      <trkpt lat="44.74068" lon="-0.58449">
        <ele>19.626249</ele>
        <time>2016-01-17T09:38:13Z</time>
      </trkpt>
      <trkpt lat="44.74075" lon="-0.58454">
        <ele>19.551874</ele>
        <time>2016-01-17T09:38:15Z</time>
      </trkpt>
      <trkpt lat="44.74082" lon="-0.58455">
        <ele>19.539375</ele>
        <time>2016-01-17T09:38:17Z</time>
      </trkpt>
      <trkpt lat="44.74097" lon="-0.58454">
        <ele>19.561874</ele>
        <time>2016-01-17T09:38:21Z</time>
      </trkpt>
      <trkpt lat="44.74104" lon="-0.58451">
        <ele>19.610624</ele>
        <time>2016-01-17T09:38:23Z</time>
      </trkpt>
      <trkpt lat="44.74118" lon="-0.58441">
        <ele>19.714031</ele>
        <time>2016-01-17T09:38:27Z</time>
      </trkpt>
      <trkpt lat="44.74125" lon="-0.58438">
        <ele>19.623236</ele>
        <time>2016-01-17T09:38:29Z</time>
      </trkpt>
      <trkpt lat="44.74136" lon="-0.58437">
        <ele>19.450125</ele>
        <time>2016-01-17T09:38:32Z</time>
      </trkpt>
      <trkpt lat="44.74152" lon="-0.58438">
        <ele>19.134365</ele>
        <time>2016-01-17T09:38:40Z</time>
      </trkpt>
      <trkpt lat="44.74208" lon="-0.58433">
        <ele>19</ele>
        <time>2016-01-17T09:38:55Z</time>
      </trkpt>
      <trkpt lat="44.74247" lon="-0.58434">
        <ele>19.000626</ele>
        <time>2016-01-17T09:39:04Z</time>
      </trkpt>
      <trkpt lat="44.74259" lon="-0.58429">
        <ele>19.267843</ele>
        <time>2016-01-17T09:39:07Z</time>
      </trkpt>
      <trkpt lat="44.74265" lon="-0.58423">
        <ele>19.412275</ele>
        <time>2016-01-17T09:39:09Z</time>
      </trkpt>
      <trkpt lat="44.74278" lon="-0.58403">
        <ele>19.494938</ele>
        <time>2016-01-17T09:39:16Z</time>
      </trkpt>
      <trkpt lat="44.74282" lon="-0.5839">
        <ele>19.40675</ele>
        <time>2016-01-17T09:39:19Z</time>
      </trkpt>
      <trkpt lat="44.74292" lon="-0.58367">
        <ele>19.181875</ele>
        <time>2016-01-17T09:39:24Z</time>
      </trkpt>
      <trkpt lat="44.74303" lon="-0.58349">
        <ele>19.34568</ele>
        <time>2016-01-17T09:39:29Z</time>
      </trkpt>
      <trkpt lat="44.74311" lon="-0.58338">
        <ele>19.399609</ele>
        <time>2016-01-17T09:39:32Z</time>
      </trkpt>
      <trkpt lat="44.74325" lon="-0.58323">
        <ele>19.318476</ele>
        <time>2016-01-17T09:39:37Z</time>
      </trkpt>
      <trkpt lat="44.74351" lon="-0.58302">
        <ele>19</ele>
        <time>2016-01-17T09:39:46Z</time>
      </trkpt>
      <trkpt lat="44.7437" lon="-0.58282">
        <ele>19</ele>
        <time>2016-01-17T09:39:53Z</time>
      </trkpt>
      <trkpt lat="44.74422" lon="-0.5824">
        <ele>19</ele>
        <time>2016-01-17T09:40:10Z</time>
      </trkpt>
      <trkpt lat="44.74435" lon="-0.58226">
        <ele>18.992104</ele>
        <time>2016-01-17T09:40:15Z</time>
      </trkpt>
      <trkpt lat="44.74455" lon="-0.58211">
        <ele>18.69145</ele>
        <time>2016-01-17T09:40:21Z</time>
      </trkpt>
      <trkpt lat="44.74463" lon="-0.58207">
        <ele>18.525343</ele>
        <time>2016-01-17T09:40:24Z</time>
      </trkpt>
      <trkpt lat="44.74463" lon="-0.582">
        <ele>18.460531</ele>
        <time>2016-01-17T09:40:26Z</time>
      </trkpt>
      <trkpt lat="44.74455" lon="-0.58173">
        <ele>18.711834</ele>
        <time>2016-01-17T09:40:37Z</time>
      </trkpt>
      <trkpt lat="44.74446" lon="-0.58158">
        <ele>18.898623</ele>
        <time>2016-01-17T09:40:46Z</time>
      </trkpt>
      <trkpt lat="44.74443" lon="-0.58154">
        <ele>18.940908</ele>
        <time>2016-01-17T09:40:49Z</time>
      </trkpt>
      <trkpt lat="44.74421" lon="-0.58113">
        <ele>19.83625</ele>
        <time>2016-01-17T09:41:05Z</time>
      </trkpt>
      <trkpt lat="44.74413" lon="-0.58102">
        <ele>20.360001</ele>
        <time>2016-01-17T09:41:09Z</time>
      </trkpt>
      <trkpt lat="44.74387" lon="-0.58058">
        <ele>22.23875</ele>
        <time>2016-01-17T09:41:22Z</time>
      </trkpt>
      <trkpt lat="44.74381" lon="-0.58041">
        <ele>22.649376</ele>
        <time>2016-01-17T09:41:27Z</time>
      </trkpt>
      <trkpt lat="44.74381" lon="-0.58038">
        <ele>22.676874</ele>
        <time>2016-01-17T09:41:28Z</time>
      </trkpt>
      <trkpt lat="44.74388" lon="-0.58034">
        <ele>22.615625</ele>
        <time>2016-01-17T09:41:31Z</time>
      </trkpt>
      <trkpt lat="44.74462" lon="-0.57935">
        <ele>24.645624</ele>
        <time>2016-01-17T09:42:03Z</time>
      </trkpt>
      <trkpt lat="44.74477" lon="-0.57918">
        <ele>24.608749</ele>
        <time>2016-01-17T09:42:10Z</time>
      </trkpt>
      <trkpt lat="44.74497" lon="-0.57889">
        <ele>24.64625</ele>
        <time>2016-01-17T09:42:19Z</time>
      </trkpt>
      <trkpt lat="44.74503" lon="-0.57876">
        <ele>24.746729</ele>
        <time>2016-01-17T09:42:22Z</time>
      </trkpt>
      <trkpt lat="44.74714" lon="-0.57602">
        <ele>26.52305</ele>
        <time>2016-01-17T09:43:40Z</time>
      </trkpt>
      <trkpt lat="44.74716" lon="-0.57595">
        <ele>26.616497</ele>
        <time>2016-01-17T09:43:42Z</time>
      </trkpt>
      <trkpt lat="44.74716" lon="-0.57591">
        <ele>26.747463</ele>
        <time>2016-01-17T09:43:43Z</time>
      </trkpt>
      <trkpt lat="44.74666" lon="-0.57524">
        <ele>29.978399</ele>
        <time>2016-01-17T09:44:06Z</time>
      </trkpt>
      <trkpt lat="44.74637" lon="-0.57494">
        <ele>31.15</ele>
        <time>2016-01-17T09:44:17Z</time>
      </trkpt>
      <trkpt lat="44.74609" lon="-0.57463">
        <ele>31.68</ele>
        <time>2016-01-17T09:44:28Z</time>
      </trkpt>
      <trkpt lat="44.74558" lon="-0.57409">
        <ele>33.23875</ele>
        <time>2016-01-17T09:44:48Z</time>
      </trkpt>
      <trkpt lat="44.74428" lon="-0.57267">
        <ele>37.340626</ele>
        <time>2016-01-17T09:45:39Z</time>
      </trkpt>
      <trkpt lat="44.74413" lon="-0.57248">
        <ele>37.959999</ele>
        <time>2016-01-17T09:45:46Z</time>
      </trkpt>
      <trkpt lat="44.74354" lon="-0.57182">
        <ele>40.32375</ele>
        <time>2016-01-17T09:46:11Z</time>
      </trkpt>
      <trkpt lat="44.74349" lon="-0.57174">
        <ele>40.536522</ele>
        <time>2016-01-17T09:46:14Z</time>
      </trkpt>
      <trkpt lat="44.74336" lon="-0.57159">
        <ele>40.861179</ele>
        <time>2016-01-17T09:46:21Z</time>
      </trkpt>
      <trkpt lat="44.74327" lon="-0.57152">
        <ele>41</ele>
        <time>2016-01-17T09:46:25Z</time>
      </trkpt>
      <trkpt lat="44.74325" lon="-0.57147">
        <ele>41</ele>
        <time>2016-01-17T09:46:27Z</time>
      </trkpt>
      <trkpt lat="44.74322" lon="-0.5713">
        <ele>41</ele>
        <time>2016-01-17T09:46:32Z</time>
      </trkpt>
      <trkpt lat="44.74323" lon="-0.57123">
        <ele>41</ele>
        <time>2016-01-17T09:46:34Z</time>
      </trkpt>
      <trkpt lat="44.74325" lon="-0.57116">
        <ele>41</ele>
        <time>2016-01-17T09:46:36Z</time>
      </trkpt>
      <trkpt lat="44.74334" lon="-0.57073">
        <ele>41</ele>
        <time>2016-01-17T09:46:45Z</time>
      </trkpt>
      <trkpt lat="44.74336" lon="-0.57051">
        <ele>41</ele>
        <time>2016-01-17T09:46:49Z</time>
      </trkpt>
      <trkpt lat="44.74347" lon="-0.56853">
        <ele>39</ele>
        <time>2016-01-17T09:47:22Z</time>
      </trkpt>
      <trkpt lat="44.74359" lon="-0.56808">
        <ele>39</ele>
        <time>2016-01-17T09:47:30Z</time>
      </trkpt>
      <trkpt lat="44.74367" lon="-0.5678">
        <ele>38.708752</ele>
        <time>2016-01-17T09:47:35Z</time>
      </trkpt>
      <trkpt lat="44.74395" lon="-0.56729">
        <ele>37.8675</ele>
        <time>2016-01-17T09:47:46Z</time>
      </trkpt>
      <trkpt lat="44.74402" lon="-0.5671">
        <ele>37.560623</ele>
        <time>2016-01-17T09:47:50Z</time>
      </trkpt>
      <trkpt lat="44.74403" lon="-0.56706">
        <ele>37.49625</ele>
        <time>2016-01-17T09:47:51Z</time>
      </trkpt>
      <trkpt lat="44.74402" lon="-0.56701">
        <ele>37.429375</ele>
        <time>2016-01-17T09:47:52Z</time>
      </trkpt>
      <trkpt lat="44.744" lon="-0.56699">
        <ele>37.384998</ele>
        <time>2016-01-17T09:47:53Z</time>
      </trkpt>
      <trkpt lat="44.74382" lon="-0.56694">
        <ele>37.367123</ele>
        <time>2016-01-17T09:47:58Z</time>
      </trkpt>
      <trkpt lat="44.74364" lon="-0.56683">
        <ele>37.559986</ele>
        <time>2016-01-17T09:48:03Z</time>
      </trkpt>
      <trkpt lat="44.74308" lon="-0.56657">
        <ele>37.208897</ele>
        <time>2016-01-17T09:48:17Z</time>
      </trkpt>
      <trkpt lat="44.74296" lon="-0.5665">
        <ele>36.999245</ele>
        <time>2016-01-17T09:48:20Z</time>
      </trkpt>
      <trkpt lat="44.74274" lon="-0.56631">
        <ele>36.698082</ele>
        <time>2016-01-17T09:48:26Z</time>
      </trkpt>
      <trkpt lat="44.74216" lon="-0.56593">
        <ele>35.073669</ele>
        <time>2016-01-17T09:48:38Z</time>
      </trkpt>
      <trkpt lat="44.74176" lon="-0.56569">
        <ele>33.075626</ele>
        <time>2016-01-17T09:48:46Z</time>
      </trkpt>
      <trkpt lat="44.74174" lon="-0.56565">
        <ele>32.904373</ele>
        <time>2016-01-17T09:48:47Z</time>
      </trkpt>
      <trkpt lat="44.74173" lon="-0.56541">
        <ele>32.497501</ele>
        <time>2016-01-17T09:48:52Z</time>
      </trkpt>
      <trkpt lat="44.74176" lon="-0.56526">
        <ele>32.386333</ele>
        <time>2016-01-17T09:48:56Z</time>
      </trkpt>
      <trkpt lat="44.74179" lon="-0.56518">
        <ele>32.439636</ele>
        <time>2016-01-17T09:48:58Z</time>
      </trkpt>
      <trkpt lat="44.74181" lon="-0.56496">
        <ele>32.273666</ele>
        <time>2016-01-17T09:49:02Z</time>
      </trkpt>
      <trkpt lat="44.74189" lon="-0.56445">
        <ele>32.5075</ele>
        <time>2016-01-17T09:49:11Z</time>
      </trkpt>
      <trkpt lat="44.74196" lon="-0.56386">
        <ele>32.628361</ele>
        <time>2016-01-17T09:49:21Z</time>
      </trkpt>
      <trkpt lat="44.74209" lon="-0.56298">
        <ele>31.92625</ele>
        <time>2016-01-17T09:49:36Z</time>
      </trkpt>
      <trkpt lat="44.74209" lon="-0.56288">
        <ele>31.754375</ele>
        <time>2016-01-17T09:49:38Z</time>
      </trkpt>
      <trkpt lat="44.74208" lon="-0.56277">
        <ele>31.412632</ele>
        <time>2016-01-17T09:49:40Z</time>
      </trkpt>
      <trkpt lat="44.74208" lon="-0.56262">
        <ele>30.972954</ele>
        <time>2016-01-17T09:49:43Z</time>
      </trkpt>
      <trkpt lat="44.74207" lon="-0.56247">
        <ele>30.496769</ele>
        <time>2016-01-17T09:49:47Z</time>
      </trkpt>
      <trkpt lat="44.74205" lon="-0.56243">
        <ele>30.325075</ele>
        <time>2016-01-17T09:49:49Z</time>
      </trkpt>
      <trkpt lat="44.7418" lon="-0.56238">
        <ele>29.50293</ele>
        <time>2016-01-17T09:49:57Z</time>
      </trkpt>
      <trkpt lat="44.74116" lon="-0.5621">
        <ele>26.392492</ele>
        <time>2016-01-17T09:50:12Z</time>
      </trkpt>
      <trkpt lat="44.74043" lon="-0.56183">
        <ele>23.671139</ele>
        <time>2016-01-17T09:50:26Z</time>
      </trkpt>
      <trkpt lat="44.73999" lon="-0.56161">
        <ele>22.31625</ele>
        <time>2016-01-17T09:50:34Z</time>
      </trkpt>
      <trkpt lat="44.73949" lon="-0.56144">
        <ele>20.94512</ele>
        <time>2016-01-17T09:50:43Z</time>
      </trkpt>
      <trkpt lat="44.73889" lon="-0.56128">
        <ele>20</ele>
        <time>2016-01-17T09:50:55Z</time>
      </trkpt>
      <trkpt lat="44.73864" lon="-0.56123">
        <ele>20</ele>
        <time>2016-01-17T09:51:01Z</time>
      </trkpt>
      <trkpt lat="44.73808" lon="-0.56103">
        <ele>20.730625</ele>
        <time>2016-01-17T09:51:15Z</time>
      </trkpt>
      <trkpt lat="44.73788" lon="-0.56097">
        <ele>21.238125</ele>
        <time>2016-01-17T09:51:20Z</time>
      </trkpt>
      <trkpt lat="44.7376" lon="-0.56087">
        <ele>22.063555</ele>
        <time>2016-01-17T09:51:28Z</time>
      </trkpt>
      <trkpt lat="44.73735" lon="-0.56082">
        <ele>22.764847</ele>
        <time>2016-01-17T09:51:35Z</time>
      </trkpt>
      <trkpt lat="44.73681" lon="-0.56066">
        <ele>24.155378</ele>
        <time>2016-01-17T09:51:51Z</time>
      </trkpt>
      <trkpt lat="44.73654" lon="-0.5606">
        <ele>26.0734</ele>
        <time>2016-01-17T09:52:00Z</time>
      </trkpt>
      <trkpt lat="44.7361" lon="-0.56046">
        <ele>29.150269</ele>
        <time>2016-01-17T09:52:14Z</time>
      </trkpt>
      <trkpt lat="44.73537" lon="-0.56018">
        <ele>33.092499</ele>
        <time>2016-01-17T09:52:35Z</time>
      </trkpt>
      <trkpt lat="44.73467" lon="-0.55994">
        <ele>36.423244</ele>
        <time>2016-01-17T09:52:59Z</time>
      </trkpt>
      <trkpt lat="44.73437" lon="-0.55983">
        <ele>39.043831</ele>
        <time>2016-01-17T09:53:09Z</time>
      </trkpt>
      <trkpt lat="44.73408" lon="-0.55975">
        <ele>41.1325</ele>
        <time>2016-01-17T09:53:19Z</time>
      </trkpt>
      <trkpt lat="44.73385" lon="-0.55972">
        <ele>41.647499</ele>
        <time>2016-01-17T09:53:26Z</time>
      </trkpt>
      <trkpt lat="44.73372" lon="-0.55974">
        <ele>41.9375</ele>
        <time>2016-01-17T09:53:30Z</time>
      </trkpt>
      <trkpt lat="44.73362" lon="-0.55977">
        <ele>42.124477</ele>
        <time>2016-01-17T09:53:33Z</time>
      </trkpt>
      <trkpt lat="44.7335" lon="-0.55987">
        <ele>42.404106</ele>
        <time>2016-01-17T09:53:37Z</time>
      </trkpt>
      <trkpt lat="44.73328" lon="-0.56001">
        <ele>42.9025</ele>
        <time>2016-01-17T09:53:44Z</time>
      </trkpt>
      <trkpt lat="44.73311" lon="-0.56009">
        <ele>43</ele>
        <time>2016-01-17T09:53:49Z</time>
      </trkpt>
      <trkpt lat="44.73276" lon="-0.56031">
        <ele>43</ele>
        <time>2016-01-17T09:53:59Z</time>
      </trkpt>
      <trkpt lat="44.73195" lon="-0.56077">
        <ele>43</ele>
        <time>2016-01-17T09:54:21Z</time>
      </trkpt>
      <trkpt lat="44.73167" lon="-0.56096">
        <ele>42.938313</ele>
        <time>2016-01-17T09:54:29Z</time>
      </trkpt>
      <trkpt lat="44.73159" lon="-0.56099">
        <ele>42.944359</ele>
        <time>2016-01-17T09:54:31Z</time>
      </trkpt>
      <trkpt lat="44.73146" lon="-0.561">
        <ele>42.947651</ele>
        <time>2016-01-17T09:54:34Z</time>
      </trkpt>
      <trkpt lat="44.73138" lon="-0.56098">
        <ele>42.849205</ele>
        <time>2016-01-17T09:54:36Z</time>
      </trkpt>
      <trkpt lat="44.73064" lon="-0.56052">
        <ele>42</ele>
        <time>2016-01-17T09:54:53Z</time>
      </trkpt>
      <trkpt lat="44.73015" lon="-0.56019">
        <ele>41.11911</ele>
        <time>2016-01-17T09:55:05Z</time>
      </trkpt>
      <trkpt lat="44.73002" lon="-0.56009">
        <ele>41.078651</ele>
        <time>2016-01-17T09:55:08Z</time>
      </trkpt>
      <trkpt lat="44.7297" lon="-0.55988">
        <ele>41.265759</ele>
        <time>2016-01-17T09:55:15Z</time>
      </trkpt>
      <trkpt lat="44.72948" lon="-0.55973">
        <ele>41.078751</ele>
        <time>2016-01-17T09:55:20Z</time>
      </trkpt>
      <trkpt lat="44.72835" lon="-0.55898">
        <ele>42.003395</ele>
        <time>2016-01-17T09:55:50Z</time>
      </trkpt>
      <trkpt lat="44.72804" lon="-0.55881">
        <ele>42.698879</ele>
        <time>2016-01-17T09:55:59Z</time>
      </trkpt>
      <trkpt lat="44.72799" lon="-0.55877">
        <ele>42.802525</ele>
        <time>2016-01-17T09:56:01Z</time>
      </trkpt>
      <trkpt lat="44.72764" lon="-0.55864">
        <ele>43.247135</ele>
        <time>2016-01-17T09:56:12Z</time>
      </trkpt>
      <trkpt lat="44.7273" lon="-0.55857">
        <ele>43.579376</ele>
        <time>2016-01-17T09:56:21Z</time>
      </trkpt>
      <trkpt lat="44.72674" lon="-0.55848">
        <ele>44.19125</ele>
        <time>2016-01-17T09:56:35Z</time>
      </trkpt>
      <trkpt lat="44.72617" lon="-0.55845">
        <ele>44.926033</ele>
        <time>2016-01-17T09:56:49Z</time>
      </trkpt>
      <trkpt lat="44.72532" lon="-0.55846">
        <ele>46</ele>
        <time>2016-01-17T09:57:12Z</time>
      </trkpt>
      <trkpt lat="44.72518" lon="-0.55848">
        <ele>46</ele>
        <time>2016-01-17T09:57:16Z</time>
      </trkpt>
      <trkpt lat="44.72512" lon="-0.55854">
        <ele>46</ele>
        <time>2016-01-17T09:57:18Z</time>
      </trkpt>
      <trkpt lat="44.72507" lon="-0.55867">
        <ele>46</ele>
        <time>2016-01-17T09:57:22Z</time>
      </trkpt>
      <trkpt lat="44.72505" lon="-0.55868">
        <ele>46</ele>
        <time>2016-01-17T09:57:23Z</time>
      </trkpt>
      <trkpt lat="44.72499" lon="-0.55864">
        <ele>46</ele>
        <time>2016-01-17T09:57:26Z</time>
      </trkpt>
      <trkpt lat="44.72494" lon="-0.55864">
        <ele>46</ele>
        <time>2016-01-17T09:57:28Z</time>
      </trkpt>
      <trkpt lat="44.72484" lon="-0.55865">
        <ele>46</ele>
        <time>2016-01-17T09:57:31Z</time>
      </trkpt>
      <trkpt lat="44.72479" lon="-0.55862">
        <ele>46</ele>
        <time>2016-01-17T09:57:33Z</time>
      </trkpt>
      <trkpt lat="44.72465" lon="-0.55862">
        <ele>46.154999</ele>
        <time>2016-01-17T09:57:37Z</time>
      </trkpt>
      <trkpt lat="44.72446" lon="-0.55867">
        <ele>46.580002</ele>
        <time>2016-01-17T09:57:42Z</time>
      </trkpt>
      <trkpt lat="44.72435" lon="-0.55873">
        <ele>46.814999</ele>
        <time>2016-01-17T09:57:45Z</time>
      </trkpt>
      <trkpt lat="44.72359" lon="-0.5595">
        <ele>47.243752</ele>
        <time>2016-01-17T09:58:07Z</time>
      </trkpt>
      <trkpt lat="44.7235" lon="-0.55964">
        <ele>47.220001</ele>
        <time>2016-01-17T09:58:10Z</time>
      </trkpt>
      <trkpt lat="44.72336" lon="-0.55973">
        <ele>47.363125</ele>
        <time>2016-01-17T09:58:14Z</time>
      </trkpt>
      <trkpt lat="44.72331" lon="-0.55979">
        <ele>47.348495</ele>
        <time>2016-01-17T09:58:16Z</time>
      </trkpt>
      <trkpt lat="44.72286" lon="-0.56021">
        <ele>48.035</ele>
        <time>2016-01-17T09:58:30Z</time>
      </trkpt>
      <trkpt lat="44.72263" lon="-0.56048">
        <ele>48.529999</ele>
        <time>2016-01-17T09:58:38Z</time>
      </trkpt>
      <trkpt lat="44.72216" lon="-0.56094">
        <ele>49.87677</ele>
        <time>2016-01-17T09:58:54Z</time>
      </trkpt>
      <trkpt lat="44.72183" lon="-0.56123">
        <ele>51.275002</ele>
        <time>2016-01-17T09:59:05Z</time>
      </trkpt>
      <trkpt lat="44.72164" lon="-0.56127">
        <ele>51.677502</ele>
        <time>2016-01-17T09:59:11Z</time>
      </trkpt>
      <trkpt lat="44.72152" lon="-0.56127">
        <ele>51.945</ele>
        <time>2016-01-17T09:59:16Z</time>
      </trkpt>
      <trkpt lat="44.72145" lon="-0.56117">
        <ele>52.125</ele>
        <time>2016-01-17T09:59:21Z</time>
      </trkpt>
      <trkpt lat="44.72142" lon="-0.56115">
        <ele>52.174835</ele>
        <time>2016-01-17T09:59:22Z</time>
      </trkpt>
      <trkpt lat="44.72064" lon="-0.56107">
        <ele>53.9175</ele>
        <time>2016-01-17T09:59:44Z</time>
      </trkpt>
      <trkpt lat="44.72049" lon="-0.56108">
        <ele>54.244999</ele>
        <time>2016-01-17T09:59:48Z</time>
      </trkpt>
      <trkpt lat="44.72039" lon="-0.56114">
        <ele>54.474998</ele>
        <time>2016-01-17T09:59:51Z</time>
      </trkpt>
      <trkpt lat="44.72033" lon="-0.56119">
        <ele>54.612499</ele>
        <time>2016-01-17T09:59:53Z</time>
      </trkpt>
      <trkpt lat="44.72022" lon="-0.56136">
        <ele>54.827499</ele>
        <time>2016-01-17T09:59:57Z</time>
      </trkpt>
      <trkpt lat="44.72018" lon="-0.56152">
        <ele>54.919998</ele>
        <time>2016-01-17T10:00:00Z</time>
      </trkpt>
      <trkpt lat="44.72013" lon="-0.5618">
        <ele>54.863125</ele>
        <time>2016-01-17T10:00:06Z</time>
      </trkpt>
      <trkpt lat="44.72012" lon="-0.56195">
        <ele>54.638748</ele>
        <time>2016-01-17T10:00:09Z</time>
      </trkpt>
      <trkpt lat="44.72012" lon="-0.56212">
        <ele>54.357498</ele>
        <time>2016-01-17T10:00:13Z</time>
      </trkpt>
      <trkpt lat="44.72009" lon="-0.56221">
        <ele>54.224998</ele>
        <time>2016-01-17T10:00:15Z</time>
      </trkpt>
      <trkpt lat="44.71947" lon="-0.56262">
        <ele>53.08625</ele>
        <time>2016-01-17T10:00:29Z</time>
      </trkpt>
      <trkpt lat="44.71933" lon="-0.56272">
        <ele>52.60125</ele>
        <time>2016-01-17T10:00:32Z</time>
      </trkpt>
      <trkpt lat="44.71903" lon="-0.56291">
        <ele>52.016636</ele>
        <time>2016-01-17T10:00:38Z</time>
      </trkpt>
      <trkpt lat="44.71867" lon="-0.56315">
        <ele>51.443748</ele>
        <time>2016-01-17T10:00:45Z</time>
      </trkpt>
      <trkpt lat="44.71851" lon="-0.56324">
        <ele>50.931877</ele>
        <time>2016-01-17T10:00:48Z</time>
      </trkpt>
      <trkpt lat="44.71798" lon="-0.56359">
        <ele>48.579102</ele>
        <time>2016-01-17T10:00:58Z</time>
      </trkpt>
      <trkpt lat="44.71757" lon="-0.56384">
        <ele>47.169209</ele>
        <time>2016-01-17T10:01:06Z</time>
      </trkpt>
      <trkpt lat="44.71738" lon="-0.56397">
        <ele>46.806</ele>
        <time>2016-01-17T10:01:10Z</time>
      </trkpt>
      <trkpt lat="44.71716" lon="-0.56416">
        <ele>46.576061</ele>
        <time>2016-01-17T10:01:15Z</time>
      </trkpt>
      <trkpt lat="44.71712" lon="-0.56418">
        <ele>46.508724</ele>
        <time>2016-01-17T10:01:16Z</time>
      </trkpt>
      <trkpt lat="44.7167" lon="-0.56422">
        <ele>46.723751</ele>
        <time>2016-01-17T10:01:26Z</time>
      </trkpt>
      <trkpt lat="44.71665" lon="-0.56424">
        <ele>46.891876</ele>
        <time>2016-01-17T10:01:28Z</time>
      </trkpt>
      <trkpt lat="44.71633" lon="-0.56443">
        <ele>47.923752</ele>
        <time>2016-01-17T10:01:37Z</time>
      </trkpt>
      <trkpt lat="44.71578" lon="-0.56499">
        <ele>49.48</ele>
        <time>2016-01-17T10:01:52Z</time>
      </trkpt>
      <trkpt lat="44.7157" lon="-0.56505">
        <ele>49.657501</ele>
        <time>2016-01-17T10:01:54Z</time>
      </trkpt>
      <trkpt lat="44.71552" lon="-0.56523">
        <ele>50</ele>
        <time>2016-01-17T10:01:59Z</time>
      </trkpt>
      <trkpt lat="44.71487" lon="-0.56571">
        <ele>49.415283</ele>
        <time>2016-01-17T10:02:15Z</time>
      </trkpt>
      <trkpt lat="44.71448" lon="-0.56595">
        <ele>48.087929</ele>
        <time>2016-01-17T10:02:23Z</time>
      </trkpt>
      <trkpt lat="44.71433" lon="-0.56606">
        <ele>47.296169</ele>
        <time>2016-01-17T10:02:26Z</time>
      </trkpt>
      <trkpt lat="44.7142" lon="-0.5662">
        <ele>46.752495</ele>
        <time>2016-01-17T10:02:29Z</time>
      </trkpt>
      <trkpt lat="44.71409" lon="-0.5664">
        <ele>46.602825</ele>
        <time>2016-01-17T10:02:32Z</time>
      </trkpt>
      <trkpt lat="44.71379" lon="-0.56714">
        <ele>45.445</ele>
        <time>2016-01-17T10:02:42Z</time>
      </trkpt>
      <trkpt lat="44.71373" lon="-0.56727">
        <ele>45.16</ele>
        <time>2016-01-17T10:02:44Z</time>
      </trkpt>
      <trkpt lat="44.71358" lon="-0.56749">
        <ele>45.165657</ele>
        <time>2016-01-17T10:02:48Z</time>
      </trkpt>
      <trkpt lat="44.71336" lon="-0.56771">
        <ele>45.715889</ele>
        <time>2016-01-17T10:02:54Z</time>
      </trkpt>
      <trkpt lat="44.71327" lon="-0.56785">
        <ele>45.929619</ele>
        <time>2016-01-17T10:02:57Z</time>
      </trkpt>
      <trkpt lat="44.71324" lon="-0.56805">
        <ele>45.981178</ele>
        <time>2016-01-17T10:03:00Z</time>
      </trkpt>
      <trkpt lat="44.71319" lon="-0.56826">
        <ele>46.041935</ele>
        <time>2016-01-17T10:03:03Z</time>
      </trkpt>
      <trkpt lat="44.71297" lon="-0.56896">
        <ele>47.058125</ele>
        <time>2016-01-17T10:03:14Z</time>
      </trkpt>
      <trkpt lat="44.71274" lon="-0.5698">
        <ele>48</ele>
        <time>2016-01-17T10:03:28Z</time>
      </trkpt>
      <trkpt lat="44.71264" lon="-0.57011">
        <ele>48</ele>
        <time>2016-01-17T10:03:33Z</time>
      </trkpt>
      <trkpt lat="44.71258" lon="-0.57035">
        <ele>48.293125</ele>
        <time>2016-01-17T10:03:37Z</time>
      </trkpt>
      <trkpt lat="44.71219" lon="-0.57125">
        <ele>49</ele>
        <time>2016-01-17T10:03:54Z</time>
      </trkpt>
      <trkpt lat="44.71189" lon="-0.57196">
        <ele>49</ele>
        <time>2016-01-17T10:04:08Z</time>
      </trkpt>
      <trkpt lat="44.71185" lon="-0.57214">
        <ele>49.040104</ele>
        <time>2016-01-17T10:04:13Z</time>
      </trkpt>
      <trkpt lat="44.71184" lon="-0.57216">
        <ele>49.038273</ele>
        <time>2016-01-17T10:04:14Z</time>
      </trkpt>
      <trkpt lat="44.71176" lon="-0.57218">
        <ele>49.001312</ele>
        <time>2016-01-17T10:04:17Z</time>
      </trkpt>
      <trkpt lat="44.71172" lon="-0.57215">
        <ele>49.022423</ele>
        <time>2016-01-17T10:04:19Z</time>
      </trkpt>
      <trkpt lat="44.71152" lon="-0.57182">
        <ele>49</ele>
        <time>2016-01-17T10:04:31Z</time>
      </trkpt>
      <trkpt lat="44.71117" lon="-0.57139">
        <ele>49.355</ele>
        <time>2016-01-17T10:04:44Z</time>
      </trkpt>
      <trkpt lat="44.711" lon="-0.57119">
        <ele>49.75</ele>
        <time>2016-01-17T10:04:50Z</time>
      </trkpt>
      <trkpt lat="44.71073" lon="-0.57084">
        <ele>50</ele>
        <time>2016-01-17T10:05:00Z</time>
      </trkpt>
      <trkpt lat="44.71005" lon="-0.57002">
        <ele>49.044998</ele>
        <time>2016-01-17T10:05:22Z</time>
      </trkpt>
      <trkpt lat="44.70991" lon="-0.56988">
        <ele>48.525623</ele>
        <time>2016-01-17T10:05:26Z</time>
      </trkpt>
      <trkpt lat="44.70988" lon="-0.56985">
        <ele>48.404377</ele>
        <time>2016-01-17T10:05:27Z</time>
      </trkpt>
      <trkpt lat="44.70983" lon="-0.56985">
        <ele>48.307499</ele>
        <time>2016-01-17T10:05:28Z</time>
      </trkpt>
      <trkpt lat="44.70949" lon="-0.57005">
        <ele>47.895</ele>
        <time>2016-01-17T10:05:37Z</time>
      </trkpt>
      <trkpt lat="44.70802" lon="-0.571">
        <ele>46.319374</ele>
        <time>2016-01-17T10:06:13Z</time>
      </trkpt>
      <trkpt lat="44.70792" lon="-0.5711">
        <ele>46.266251</ele>
        <time>2016-01-17T10:06:16Z</time>
      </trkpt>
      <trkpt lat="44.70789" lon="-0.57115">
        <ele>46.295624</ele>
        <time>2016-01-17T10:06:17Z</time>
      </trkpt>
      <trkpt lat="44.70784" lon="-0.57141">
        <ele>46.510239</ele>
        <time>2016-01-17T10:06:22Z</time>
      </trkpt>
      <trkpt lat="44.7078" lon="-0.57147">
        <ele>46.550037</ele>
        <time>2016-01-17T10:06:24Z</time>
      </trkpt>
      <trkpt lat="44.70771" lon="-0.57154">
        <ele>46.543751</ele>
        <time>2016-01-17T10:06:27Z</time>
      </trkpt>
      <trkpt lat="44.70762" lon="-0.57153">
        <ele>46.330624</ele>
        <time>2016-01-17T10:06:31Z</time>
      </trkpt>
      <trkpt lat="44.70758" lon="-0.5716">
        <ele>46.369377</ele>
        <time>2016-01-17T10:06:34Z</time>
      </trkpt>
      <trkpt lat="44.70755" lon="-0.57163">
        <ele>46.34375</ele>
        <time>2016-01-17T10:06:36Z</time>
      </trkpt>
      <trkpt lat="44.70739" lon="-0.57162">
        <ele>45.988125</ele>
        <time>2016-01-17T10:06:55Z</time>
      </trkpt>
      <trkpt lat="44.70735" lon="-0.57158">
        <ele>45.827499</ele>
        <time>2016-01-17T10:07:04Z</time>
      </trkpt>
      <trkpt lat="44.70736" lon="-0.57144">
        <ele>45.626877</ele>
        <time>2016-01-17T10:09:17Z</time>
      </trkpt>
      <trkpt lat="44.70731" lon="-0.57128">
        <ele>45.263126</ele>
        <time>2016-01-17T10:09:22Z</time>
      </trkpt>
      <trkpt lat="44.70721" lon="-0.57105">
        <ele>45</ele>
        <time>2016-01-17T10:09:28Z</time>
      </trkpt>
      <trkpt lat="44.70714" lon="-0.57095">
        <ele>45</ele>
        <time>2016-01-17T10:09:32Z</time>
      </trkpt>
      <trkpt lat="44.70703" lon="-0.57086">
        <ele>45</ele>
        <time>2016-01-17T10:09:36Z</time>
      </trkpt>
      <trkpt lat="44.70698" lon="-0.5708">
        <ele>45</ele>
        <time>2016-01-17T10:09:38Z</time>
      </trkpt>
      <trkpt lat="44.70693" lon="-0.57068">
        <ele>45</ele>
        <time>2016-01-17T10:09:41Z</time>
      </trkpt>
      <trkpt lat="44.70691" lon="-0.57057">
        <ele>45</ele>
        <time>2016-01-17T10:09:43Z</time>
      </trkpt>
      <trkpt lat="44.70691" lon="-0.57042">
        <ele>45</ele>
        <time>2016-01-17T10:09:46Z</time>
      </trkpt>
      <trkpt lat="44.70688" lon="-0.57032">
        <ele>45</ele>
        <time>2016-01-17T10:09:48Z</time>
      </trkpt>
      <trkpt lat="44.70683" lon="-0.57019">
        <ele>45.03299</ele>
        <time>2016-01-17T10:09:50Z</time>
      </trkpt>
      <trkpt lat="44.70681" lon="-0.56996">
        <ele>45.116016</ele>
        <time>2016-01-17T10:09:54Z</time>
      </trkpt>
      <trkpt lat="44.70675" lon="-0.56963">
        <ele>45.282501</ele>
        <time>2016-01-17T10:10:00Z</time>
      </trkpt>
      <trkpt lat="44.70663" lon="-0.5692">
        <ele>45.57</ele>
        <time>2016-01-17T10:10:07Z</time>
      </trkpt>
      <trkpt lat="44.70649" lon="-0.56885">
        <ele>45.9175</ele>
        <time>2016-01-17T10:10:13Z</time>
      </trkpt>
      <trkpt lat="44.70636" lon="-0.56867">
        <ele>46.175659</ele>
        <time>2016-01-17T10:10:17Z</time>
      </trkpt>
      <trkpt lat="44.7061" lon="-0.56839">
        <ele>46.802502</ele>
        <time>2016-01-17T10:10:26Z</time>
      </trkpt>
      <trkpt lat="44.706" lon="-0.56831">
        <ele>47.012817</ele>
        <time>2016-01-17T10:10:30Z</time>
      </trkpt>
      <trkpt lat="44.70581" lon="-0.56812">
        <ele>47.310242</ele>
        <time>2016-01-17T10:10:36Z</time>
      </trkpt>
      <trkpt lat="44.70545" lon="-0.56762">
        <ele>48</ele>
        <time>2016-01-17T10:10:49Z</time>
      </trkpt>
      <trkpt lat="44.70514" lon="-0.56738">
        <ele>48.002499</ele>
        <time>2016-01-17T10:10:57Z</time>
      </trkpt>
      <trkpt lat="44.70489" lon="-0.56727">
        <ele>48.555</ele>
        <time>2016-01-17T10:11:04Z</time>
      </trkpt>
      <trkpt lat="44.70455" lon="-0.56704">
        <ele>49</ele>
        <time>2016-01-17T10:11:13Z</time>
      </trkpt>
      <trkpt lat="44.7041" lon="-0.56669">
        <ele>49.28017</ele>
        <time>2016-01-17T10:11:23Z</time>
      </trkpt>
      <trkpt lat="44.70397" lon="-0.56654">
        <ele>49.658295</ele>
        <time>2016-01-17T10:11:26Z</time>
      </trkpt>
      <trkpt lat="44.70389" lon="-0.56642">
        <ele>49.862953</ele>
        <time>2016-01-17T10:11:28Z</time>
      </trkpt>
      <trkpt lat="44.70371" lon="-0.56606">
        <ele>50.203438</ele>
        <time>2016-01-17T10:11:34Z</time>
      </trkpt>
      <trkpt lat="44.70347" lon="-0.5655">
        <ele>50.929375</ele>
        <time>2016-01-17T10:11:44Z</time>
      </trkpt>
      <trkpt lat="44.70324" lon="-0.56499">
        <ele>51.430626</ele>
        <time>2016-01-17T10:11:54Z</time>
      </trkpt>
      <trkpt lat="44.70321" lon="-0.56488">
        <ele>51.598125</ele>
        <time>2016-01-17T10:11:56Z</time>
      </trkpt>
      <trkpt lat="44.70319" lon="-0.56454">
        <ele>52</ele>
        <time>2016-01-17T10:12:02Z</time>
      </trkpt>
      <trkpt lat="44.70312" lon="-0.56421">
        <ele>52</ele>
        <time>2016-01-17T10:12:08Z</time>
      </trkpt>
      <trkpt lat="44.70308" lon="-0.56387">
        <ele>51.958344</ele>
        <time>2016-01-17T10:12:15Z</time>
      </trkpt>
      <trkpt lat="44.7031" lon="-0.56373">
        <ele>51.892654</ele>
        <time>2016-01-17T10:12:19Z</time>
      </trkpt>
      <trkpt lat="44.70307" lon="-0.5633">
        <ele>51.845001</ele>
        <time>2016-01-17T10:12:28Z</time>
      </trkpt>
      <trkpt lat="44.70309" lon="-0.56221">
        <ele>51.024376</ele>
        <time>2016-01-17T10:12:45Z</time>
      </trkpt>
      <trkpt lat="44.70311" lon="-0.56191">
        <ele>50.57246</ele>
        <time>2016-01-17T10:12:49Z</time>
      </trkpt>
      <trkpt lat="44.70311" lon="-0.5614">
        <ele>49.982845</ele>
        <time>2016-01-17T10:12:56Z</time>
      </trkpt>
      <trkpt lat="44.7031" lon="-0.56075">
        <ele>49.924999</ele>
        <time>2016-01-17T10:13:04Z</time>
      </trkpt>
      <trkpt lat="44.7031" lon="-0.5603">
        <ele>49.939999</ele>
        <time>2016-01-17T10:13:10Z</time>
      </trkpt>
      <trkpt lat="44.70312" lon="-0.56003">
        <ele>49.938641</ele>
        <time>2016-01-17T10:13:14Z</time>
      </trkpt>
      <trkpt lat="44.70311" lon="-0.55956">
        <ele>50.022488</ele>
        <time>2016-01-17T10:13:21Z</time>
      </trkpt>
      <trkpt lat="44.70317" lon="-0.55876">
        <ele>50.919716</ele>
        <time>2016-01-17T10:13:33Z</time>
      </trkpt>
      <trkpt lat="44.70322" lon="-0.55674">
        <ele>51.93985</ele>
        <time>2016-01-17T10:14:04Z</time>
      </trkpt>
      <trkpt lat="44.70322" lon="-0.55569">
        <ele>52</ele>
        <time>2016-01-17T10:14:22Z</time>
      </trkpt>
      <trkpt lat="44.7031" lon="-0.55412">
        <ele>52</ele>
        <time>2016-01-17T10:14:48Z</time>
      </trkpt>
      <trkpt lat="44.70307" lon="-0.55365">
        <ele>52</ele>
        <time>2016-01-17T10:14:55Z</time>
      </trkpt>
      <trkpt lat="44.70282" lon="-0.55094">
        <ele>50.217499</ele>
        <time>2016-01-17T10:15:33Z</time>
      </trkpt>
      <trkpt lat="44.70279" lon="-0.55053">
        <ele>49.556232</ele>
        <time>2016-01-17T10:15:38Z</time>
      </trkpt>
      <trkpt lat="44.7028" lon="-0.55037">
        <ele>49.347</ele>
        <time>2016-01-17T10:15:40Z</time>
      </trkpt>
      <trkpt lat="44.70286" lon="-0.54951">
        <ele>48.076248</ele>
        <time>2016-01-17T10:15:52Z</time>
      </trkpt>
      <trkpt lat="44.70289" lon="-0.54928">
        <ele>47.695625</ele>
        <time>2016-01-17T10:15:56Z</time>
      </trkpt>
      <trkpt lat="44.70296" lon="-0.54901">
        <ele>47.268124</ele>
        <time>2016-01-17T10:16:01Z</time>
      </trkpt>
      <trkpt lat="44.70317" lon="-0.54761">
        <ele>45.487499</ele>
        <time>2016-01-17T10:16:21Z</time>
      </trkpt>
      <trkpt lat="44.70322" lon="-0.54743">
        <ele>45.418007</ele>
        <time>2016-01-17T10:16:24Z</time>
      </trkpt>
      <trkpt lat="44.70335" lon="-0.5471">
        <ele>45.173737</ele>
        <time>2016-01-17T10:16:30Z</time>
      </trkpt>
      <trkpt lat="44.70346" lon="-0.54689">
        <ele>45</ele>
        <time>2016-01-17T10:16:34Z</time>
      </trkpt>
      <trkpt lat="44.70364" lon="-0.54656">
        <ele>45</ele>
        <time>2016-01-17T10:16:40Z</time>
      </trkpt>
      <trkpt lat="44.70389" lon="-0.54623">
        <ele>45</ele>
        <time>2016-01-17T10:16:47Z</time>
      </trkpt>
      <trkpt lat="44.70403" lon="-0.54608">
        <ele>45</ele>
        <time>2016-01-17T10:16:51Z</time>
      </trkpt>
      <trkpt lat="44.70412" lon="-0.54602">
        <ele>45</ele>
        <time>2016-01-17T10:16:54Z</time>
      </trkpt>
      <trkpt lat="44.70427" lon="-0.54586">
        <ele>45</ele>
        <time>2016-01-17T10:17:01Z</time>
      </trkpt>
      <trkpt lat="44.70457" lon="-0.54558">
        <ele>45.327835</ele>
        <time>2016-01-17T10:17:10Z</time>
      </trkpt>
      <trkpt lat="44.70479" lon="-0.5454">
        <ele>45.382374</ele>
        <time>2016-01-17T10:17:16Z</time>
      </trkpt>
      <trkpt lat="44.70507" lon="-0.54521">
        <ele>45.593277</ele>
        <time>2016-01-17T10:17:25Z</time>
      </trkpt>
      <trkpt lat="44.70628" lon="-0.54457">
        <ele>46</ele>
        <time>2016-01-17T10:17:55Z</time>
      </trkpt>
      <trkpt lat="44.70662" lon="-0.54437">
        <ele>46</ele>
        <time>2016-01-17T10:18:03Z</time>
      </trkpt>
      <trkpt lat="44.7067" lon="-0.54431">
        <ele>46</ele>
        <time>2016-01-17T10:18:05Z</time>
      </trkpt>
      <trkpt lat="44.70677" lon="-0.54423">
        <ele>46</ele>
        <time>2016-01-17T10:18:07Z</time>
      </trkpt>
      <trkpt lat="44.70688" lon="-0.54408">
        <ele>46</ele>
        <time>2016-01-17T10:18:10Z</time>
      </trkpt>
      <trkpt lat="44.70717" lon="-0.54359">
        <ele>45.297501</ele>
        <time>2016-01-17T10:18:19Z</time>
      </trkpt>
      <trkpt lat="44.70729" lon="-0.54347">
        <ele>45.086517</ele>
        <time>2016-01-17T10:18:22Z</time>
      </trkpt>
      <trkpt lat="44.70738" lon="-0.54343">
        <ele>45.027084</ele>
        <time>2016-01-17T10:18:24Z</time>
      </trkpt>
      <trkpt lat="44.70753" lon="-0.54343">
        <ele>45.004642</ele>
        <time>2016-01-17T10:18:27Z</time>
      </trkpt>
      <trkpt lat="44.70762" lon="-0.54346">
        <ele>44.889137</ele>
        <time>2016-01-17T10:18:29Z</time>
      </trkpt>
      <trkpt lat="44.70775" lon="-0.54353">
        <ele>44.67347</ele>
        <time>2016-01-17T10:18:32Z</time>
      </trkpt>
      <trkpt lat="44.70787" lon="-0.54363">
        <ele>44.542812</ele>
        <time>2016-01-17T10:18:35Z</time>
      </trkpt>
      <trkpt lat="44.70799" lon="-0.54375">
        <ele>44.539799</ele>
        <time>2016-01-17T10:18:38Z</time>
      </trkpt>
      <trkpt lat="44.70809" lon="-0.5439">
        <ele>44.474468</ele>
        <time>2016-01-17T10:18:41Z</time>
      </trkpt>
      <trkpt lat="44.70831" lon="-0.54452">
        <ele>43.351139</ele>
        <time>2016-01-17T10:18:52Z</time>
      </trkpt>
      <trkpt lat="44.70838" lon="-0.54461">
        <ele>43.134537</ele>
        <time>2016-01-17T10:18:54Z</time>
      </trkpt>
      <trkpt lat="44.70842" lon="-0.54464">
        <ele>43.030457</ele>
        <time>2016-01-17T10:18:55Z</time>
      </trkpt>
      <trkpt lat="44.70851" lon="-0.54466">
        <ele>42.841946</ele>
        <time>2016-01-17T10:18:57Z</time>
      </trkpt>
      <trkpt lat="44.70878" lon="-0.54459">
        <ele>42.391758</ele>
        <time>2016-01-17T10:19:03Z</time>
      </trkpt>
      <trkpt lat="44.70906" lon="-0.54456">
        <ele>41.890625</ele>
        <time>2016-01-17T10:19:09Z</time>
      </trkpt>
      <trkpt lat="44.70914" lon="-0.54452">
        <ele>41.805626</ele>
        <time>2016-01-17T10:19:11Z</time>
      </trkpt>
      <trkpt lat="44.70916" lon="-0.54447">
        <ele>41.827499</ele>
        <time>2016-01-17T10:19:12Z</time>
      </trkpt>
      <trkpt lat="44.70917" lon="-0.54441">
        <ele>41.898125</ele>
        <time>2016-01-17T10:19:13Z</time>
      </trkpt>
      <trkpt lat="44.70915" lon="-0.54412">
        <ele>42.420002</ele>
        <time>2016-01-17T10:19:17Z</time>
      </trkpt>
      <trkpt lat="44.70915" lon="-0.54389">
        <ele>42.645363</ele>
        <time>2016-01-17T10:19:20Z</time>
      </trkpt>
      <trkpt lat="44.70912" lon="-0.54338">
        <ele>43.155624</ele>
        <time>2016-01-17T10:19:27Z</time>
      </trkpt>
      <trkpt lat="44.70909" lon="-0.54311">
        <ele>43.581875</ele>
        <time>2016-01-17T10:19:31Z</time>
      </trkpt>
      <trkpt lat="44.70911" lon="-0.54299">
        <ele>43.776249</ele>
        <time>2016-01-17T10:19:33Z</time>
      </trkpt>
      <trkpt lat="44.7091" lon="-0.54288">
        <ele>43.950001</ele>
        <time>2016-01-17T10:19:35Z</time>
      </trkpt>
      <trkpt lat="44.70918" lon="-0.54149">
        <ele>44.470001</ele>
        <time>2016-01-17T10:19:58Z</time>
      </trkpt>
      <trkpt lat="44.7092" lon="-0.54133">
        <ele>44.505001</ele>
        <time>2016-01-17T10:20:01Z</time>
      </trkpt>
      <trkpt lat="44.70922" lon="-0.54072">
        <ele>44.125626</ele>
        <time>2016-01-17T10:20:13Z</time>
      </trkpt>
      <trkpt lat="44.70926" lon="-0.5401">
        <ele>43.57</ele>
        <time>2016-01-17T10:20:24Z</time>
      </trkpt>
      <trkpt lat="44.70925" lon="-0.5399">
        <ele>43.540001</ele>
        <time>2016-01-17T10:20:28Z</time>
      </trkpt>
      <trkpt lat="44.70927" lon="-0.53962">
        <ele>43.439377</ele>
        <time>2016-01-17T10:20:35Z</time>
      </trkpt>
      <trkpt lat="44.70926" lon="-0.53947">
        <ele>43.168125</ele>
        <time>2016-01-17T10:20:39Z</time>
      </trkpt>
      <trkpt lat="44.70923" lon="-0.53928">
        <ele>42.788124</ele>
        <time>2016-01-17T10:20:44Z</time>
      </trkpt>
      <trkpt lat="44.70924" lon="-0.53912">
        <ele>42.558125</ele>
        <time>2016-01-17T10:20:48Z</time>
      </trkpt>
      <trkpt lat="44.70923" lon="-0.53907">
        <ele>42.451248</ele>
        <time>2016-01-17T10:20:50Z</time>
      </trkpt>
      <trkpt lat="44.70921" lon="-0.53904">
        <ele>42.354374</ele>
        <time>2016-01-17T10:20:55Z</time>
      </trkpt>
      <trkpt lat="44.70923" lon="-0.53902">
        <ele>42.362499</ele>
        <time>2016-01-17T10:20:57Z</time>
      </trkpt>
      <trkpt lat="44.7092" lon="-0.53899">
        <ele>42.251873</ele>
        <time>2016-01-17T10:21:01Z</time>
      </trkpt>
      <trkpt lat="44.70907" lon="-0.53895">
        <ele>41.911877</ele>
        <time>2016-01-17T10:21:05Z</time>
      </trkpt>
      <trkpt lat="44.7082" lon="-0.53887">
        <ele>39.697891</ele>
        <time>2016-01-17T10:21:20Z</time>
      </trkpt>
      <trkpt lat="44.70639" lon="-0.53854">
        <ele>32.561787</ele>
        <time>2016-01-17T10:21:48Z</time>
      </trkpt>
      <trkpt lat="44.70593" lon="-0.53849">
        <ele>35.069412</ele>
        <time>2016-01-17T10:21:58Z</time>
      </trkpt>
      <trkpt lat="44.70526" lon="-0.53838">
        <ele>41.092499</ele>
        <time>2016-01-17T10:22:16Z</time>
      </trkpt>
      <trkpt lat="44.70496" lon="-0.53832">
        <ele>42.256874</ele>
        <time>2016-01-17T10:22:23Z</time>
      </trkpt>
      <trkpt lat="44.70474" lon="-0.53828">
        <ele>42.713123</ele>
        <time>2016-01-17T10:22:28Z</time>
      </trkpt>
      <trkpt lat="44.70447" lon="-0.53822">
        <ele>43.234745</ele>
        <time>2016-01-17T10:22:34Z</time>
      </trkpt>
      <trkpt lat="44.70411" lon="-0.53817">
        <ele>43.998093</ele>
        <time>2016-01-17T10:22:44Z</time>
      </trkpt>
      <trkpt lat="44.7039" lon="-0.53811">
        <ele>44.989376</ele>
        <time>2016-01-17T10:22:51Z</time>
      </trkpt>
      <trkpt lat="44.7038" lon="-0.53805">
        <ele>45.556252</ele>
        <time>2016-01-17T10:22:55Z</time>
      </trkpt>
      <trkpt lat="44.70357" lon="-0.53776">
        <ele>46.81625</ele>
        <time>2016-01-17T10:23:04Z</time>
      </trkpt>
      <trkpt lat="44.70354" lon="-0.53775">
        <ele>46.9025</ele>
        <time>2016-01-17T10:23:05Z</time>
      </trkpt>
      <trkpt lat="44.70348" lon="-0.53774">
        <ele>47.052502</ele>
        <time>2016-01-17T10:23:07Z</time>
      </trkpt>
      <trkpt lat="44.70333" lon="-0.53786">
        <ele>47.177502</ele>
        <time>2016-01-17T10:23:12Z</time>
      </trkpt>
      <trkpt lat="44.70291" lon="-0.53834">
        <ele>46.916248</ele>
        <time>2016-01-17T10:23:27Z</time>
      </trkpt>
      <trkpt lat="44.70284" lon="-0.5384">
        <ele>46.865002</ele>
        <time>2016-01-17T10:23:29Z</time>
      </trkpt>
      <trkpt lat="44.70124" lon="-0.54026">
        <ele>47.646126</ele>
        <time>2016-01-17T10:24:14Z</time>
      </trkpt>
      <trkpt lat="44.70106" lon="-0.54061">
        <ele>48</ele>
        <time>2016-01-17T10:24:21Z</time>
      </trkpt>
      <trkpt lat="44.70054" lon="-0.54215">
        <ele>47.186638</ele>
        <time>2016-01-17T10:24:48Z</time>
      </trkpt>
      <trkpt lat="44.70049" lon="-0.54235">
        <ele>47.186295</ele>
        <time>2016-01-17T10:24:51Z</time>
      </trkpt>
      <trkpt lat="44.70038" lon="-0.54265">
        <ele>47.391251</ele>
        <time>2016-01-17T10:24:56Z</time>
      </trkpt>
      <trkpt lat="44.70017" lon="-0.54329">
        <ele>48.189476</ele>
        <time>2016-01-17T10:25:07Z</time>
      </trkpt>
      <trkpt lat="44.70004" lon="-0.54362">
        <ele>48.698116</ele>
        <time>2016-01-17T10:25:13Z</time>
      </trkpt>
      <trkpt lat="44.69993" lon="-0.54393">
        <ele>48.964142</ele>
        <time>2016-01-17T10:25:19Z</time>
      </trkpt>
      <trkpt lat="44.69977" lon="-0.54437">
        <ele>49.181873</ele>
        <time>2016-01-17T10:25:28Z</time>
      </trkpt>
      <trkpt lat="44.69974" lon="-0.54441">
        <ele>49.233749</ele>
        <time>2016-01-17T10:25:29Z</time>
      </trkpt>
      <trkpt lat="44.69971" lon="-0.54441">
        <ele>49.250626</ele>
        <time>2016-01-17T10:25:30Z</time>
      </trkpt>
      <trkpt lat="44.69968" lon="-0.5444">
        <ele>49.23</ele>
        <time>2016-01-17T10:25:31Z</time>
      </trkpt>
      <trkpt lat="44.69958" lon="-0.54425">
        <ele>49</ele>
        <time>2016-01-17T10:25:36Z</time>
      </trkpt>
      <trkpt lat="44.69935" lon="-0.54382">
        <ele>49.078613</ele>
        <time>2016-01-17T10:25:45Z</time>
      </trkpt>
      <trkpt lat="44.6992" lon="-0.5435">
        <ele>49</ele>
        <time>2016-01-17T10:25:51Z</time>
      </trkpt>
      <trkpt lat="44.69894" lon="-0.54302">
        <ele>49</ele>
        <time>2016-01-17T10:26:00Z</time>
      </trkpt>
      <trkpt lat="44.69815" lon="-0.542">
        <ele>47.5275</ele>
        <time>2016-01-17T10:26:20Z</time>
      </trkpt>
      <trkpt lat="44.69794" lon="-0.54178">
        <ele>46.712502</ele>
        <time>2016-01-17T10:26:26Z</time>
      </trkpt>
      <trkpt lat="44.69784" lon="-0.54165">
        <ele>46.303127</ele>
        <time>2016-01-17T10:26:29Z</time>
      </trkpt>
      <trkpt lat="44.69773" lon="-0.54154">
        <ele>45.888123</ele>
        <time>2016-01-17T10:26:32Z</time>
      </trkpt>
      <trkpt lat="44.69696" lon="-0.54064">
        <ele>43.997501</ele>
        <time>2016-01-17T10:26:53Z</time>
      </trkpt>
      <trkpt lat="44.69689" lon="-0.54057">
        <ele>43.787498</ele>
        <time>2016-01-17T10:26:55Z</time>
      </trkpt>
      <trkpt lat="44.69681" lon="-0.54052">
        <ele>43.688805</ele>
        <time>2016-01-17T10:26:57Z</time>
      </trkpt>
      <trkpt lat="44.69614" lon="-0.54021">
        <ele>44.928749</ele>
        <time>2016-01-17T10:27:12Z</time>
      </trkpt>
      <trkpt lat="44.69595" lon="-0.54009">
        <ele>45.396576</ele>
        <time>2016-01-17T10:27:16Z</time>
      </trkpt>
      <trkpt lat="44.69539" lon="-0.53983">
        <ele>45.339375</ele>
        <time>2016-01-17T10:27:28Z</time>
      </trkpt>
      <trkpt lat="44.6953" lon="-0.53976">
        <ele>45.236874</ele>
        <time>2016-01-17T10:27:30Z</time>
      </trkpt>
      <trkpt lat="44.69521" lon="-0.53967">
        <ele>45.099377</ele>
        <time>2016-01-17T10:27:32Z</time>
      </trkpt>
      <trkpt lat="44.69471" lon="-0.53904">
        <ele>44.133125</ele>
        <time>2016-01-17T10:27:44Z</time>
      </trkpt>
      <trkpt lat="44.69415" lon="-0.53827">
        <ele>43.967274</ele>
        <time>2016-01-17T10:27:58Z</time>
      </trkpt>
      <trkpt lat="44.69366" lon="-0.53762">
        <ele>44</ele>
        <time>2016-01-17T10:28:12Z</time>
      </trkpt>
      <trkpt lat="44.69354" lon="-0.53749">
        <ele>44</ele>
        <time>2016-01-17T10:28:15Z</time>
      </trkpt>
      <trkpt lat="44.6933" lon="-0.53716">
        <ele>44</ele>
        <time>2016-01-17T10:28:23Z</time>
      </trkpt>
      <trkpt lat="44.69327" lon="-0.53714">
        <ele>44</ele>
        <time>2016-01-17T10:28:24Z</time>
      </trkpt>
      <trkpt lat="44.69321" lon="-0.53716">
        <ele>44</ele>
        <time>2016-01-17T10:28:26Z</time>
      </trkpt>
      <trkpt lat="44.69308" lon="-0.5375">
        <ele>44</ele>
        <time>2016-01-17T10:28:33Z</time>
      </trkpt>
      <trkpt lat="44.69303" lon="-0.53766">
        <ele>44.089375</ele>
        <time>2016-01-17T10:28:36Z</time>
      </trkpt>
      <trkpt lat="44.69286" lon="-0.53807">
        <ele>44.750626</ele>
        <time>2016-01-17T10:28:43Z</time>
      </trkpt>
      <trkpt lat="44.69269" lon="-0.53857">
        <ele>45.565624</ele>
        <time>2016-01-17T10:28:52Z</time>
      </trkpt>
      <trkpt lat="44.69259" lon="-0.53891">
        <ele>46.108124</ele>
        <time>2016-01-17T10:28:58Z</time>
      </trkpt>
      <trkpt lat="44.69249" lon="-0.53932">
        <ele>46.758125</ele>
        <time>2016-01-17T10:29:07Z</time>
      </trkpt>
      <trkpt lat="44.69236" lon="-0.53976">
        <ele>47.473751</ele>
        <time>2016-01-17T10:29:19Z</time>
      </trkpt>
      <trkpt lat="44.69228" lon="-0.53995">
        <ele>47.785625</ele>
        <time>2016-01-17T10:29:23Z</time>
      </trkpt>
      <trkpt lat="44.69213" lon="-0.54045">
        <ele>48</ele>
        <time>2016-01-17T10:29:33Z</time>
      </trkpt>
      <trkpt lat="44.69203" lon="-0.54071">
        <ele>47.997692</ele>
        <time>2016-01-17T10:29:38Z</time>
      </trkpt>
      <trkpt lat="44.69181" lon="-0.54135">
        <ele>48.005299</ele>
        <time>2016-01-17T10:29:48Z</time>
      </trkpt>
      <trkpt lat="44.69172" lon="-0.54166">
        <ele>48.172001</ele>
        <time>2016-01-17T10:29:53Z</time>
      </trkpt>
      <trkpt lat="44.69164" lon="-0.5419">
        <ele>48.448658</ele>
        <time>2016-01-17T10:29:57Z</time>
      </trkpt>
      <trkpt lat="44.69159" lon="-0.54213">
        <ele>48.69968</ele>
        <time>2016-01-17T10:30:01Z</time>
      </trkpt>
      <trkpt lat="44.69154" lon="-0.54254">
        <ele>48.983501</ele>
        <time>2016-01-17T10:30:08Z</time>
      </trkpt>
      <trkpt lat="44.6915" lon="-0.5429">
        <ele>49.668064</ele>
        <time>2016-01-17T10:30:14Z</time>
      </trkpt>
      <trkpt lat="44.69149" lon="-0.54316">
        <ele>50.167118</ele>
        <time>2016-01-17T10:30:18Z</time>
      </trkpt>
      <trkpt lat="44.69151" lon="-0.54369">
        <ele>50.84433</ele>
        <time>2016-01-17T10:30:26Z</time>
      </trkpt>
      <trkpt lat="44.69155" lon="-0.54408">
        <ele>51</ele>
        <time>2016-01-17T10:30:32Z</time>
      </trkpt>
      <trkpt lat="44.69157" lon="-0.54448">
        <ele>51</ele>
        <time>2016-01-17T10:30:38Z</time>
      </trkpt>
      <trkpt lat="44.69158" lon="-0.54481">
        <ele>51</ele>
        <time>2016-01-17T10:30:43Z</time>
      </trkpt>
      <trkpt lat="44.69157" lon="-0.54501">
        <ele>51</ele>
        <time>2016-01-17T10:30:46Z</time>
      </trkpt>
      <trkpt lat="44.69151" lon="-0.54561">
        <ele>51.811874</ele>
        <time>2016-01-17T10:30:55Z</time>
      </trkpt>
      <trkpt lat="44.69144" lon="-0.54603">
        <ele>52</ele>
        <time>2016-01-17T10:31:02Z</time>
      </trkpt>
      <trkpt lat="44.69133" lon="-0.5464">
        <ele>52</ele>
        <time>2016-01-17T10:31:10Z</time>
      </trkpt>
      <trkpt lat="44.69128" lon="-0.54648">
        <ele>52</ele>
        <time>2016-01-17T10:31:12Z</time>
      </trkpt>
      <trkpt lat="44.69119" lon="-0.54661">
        <ele>52</ele>
        <time>2016-01-17T10:31:15Z</time>
      </trkpt>
      <trkpt lat="44.69117" lon="-0.54666">
        <ele>52</ele>
        <time>2016-01-17T10:31:16Z</time>
      </trkpt>
      <trkpt lat="44.69112" lon="-0.54689">
        <ele>52</ele>
        <time>2016-01-17T10:31:20Z</time>
      </trkpt>
      <trkpt lat="44.69104" lon="-0.54717">
        <ele>52</ele>
        <time>2016-01-17T10:31:25Z</time>
      </trkpt>
      <trkpt lat="44.69097" lon="-0.5476">
        <ele>52</ele>
        <time>2016-01-17T10:31:32Z</time>
      </trkpt>
      <trkpt lat="44.69087" lon="-0.54805">
        <ele>52</ele>
        <time>2016-01-17T10:31:39Z</time>
      </trkpt>
      <trkpt lat="44.69083" lon="-0.54834">
        <ele>52</ele>
        <time>2016-01-17T10:31:44Z</time>
      </trkpt>
      <trkpt lat="44.69072" lon="-0.54893">
        <ele>52</ele>
        <time>2016-01-17T10:31:54Z</time>
      </trkpt>
      <trkpt lat="44.69058" lon="-0.5495">
        <ele>52</ele>
        <time>2016-01-17T10:32:03Z</time>
      </trkpt>
      <trkpt lat="44.69054" lon="-0.54968">
        <ele>52</ele>
        <time>2016-01-17T10:32:06Z</time>
      </trkpt>
      <trkpt lat="44.69045" lon="-0.55007">
        <ele>52</ele>
        <time>2016-01-17T10:32:12Z</time>
      </trkpt>
      <trkpt lat="44.69037" lon="-0.55032">
        <ele>52</ele>
        <time>2016-01-17T10:32:16Z</time>
      </trkpt>
      <trkpt lat="44.69017" lon="-0.5506">
        <ele>52</ele>
        <time>2016-01-17T10:32:21Z</time>
      </trkpt>
      <trkpt lat="44.68984" lon="-0.55093">
        <ele>52.016335</ele>
        <time>2016-01-17T10:32:29Z</time>
      </trkpt>
      <trkpt lat="44.68962" lon="-0.5512">
        <ele>52</ele>
        <time>2016-01-17T10:32:35Z</time>
      </trkpt>
      <trkpt lat="44.68946" lon="-0.55148">
        <ele>52</ele>
        <time>2016-01-17T10:32:40Z</time>
      </trkpt>
      <trkpt lat="44.68932" lon="-0.55177">
        <ele>52</ele>
        <time>2016-01-17T10:32:45Z</time>
      </trkpt>
      <trkpt lat="44.68911" lon="-0.55228">
        <ele>52</ele>
        <time>2016-01-17T10:32:53Z</time>
      </trkpt>
      <trkpt lat="44.68897" lon="-0.5526">
        <ele>51.916</ele>
        <time>2016-01-17T10:32:58Z</time>
      </trkpt>
      <trkpt lat="44.6888" lon="-0.55301">
        <ele>51.2062</ele>
        <time>2016-01-17T10:33:04Z</time>
      </trkpt>
      <trkpt lat="44.68862" lon="-0.55337">
        <ele>50.647499</ele>
        <time>2016-01-17T10:33:10Z</time>
      </trkpt>
      <trkpt lat="44.6885" lon="-0.55358">
        <ele>50.30125</ele>
        <time>2016-01-17T10:33:14Z</time>
      </trkpt>
      <trkpt lat="44.68843" lon="-0.55381">
        <ele>50.060623</ele>
        <time>2016-01-17T10:33:18Z</time>
      </trkpt>
      <trkpt lat="44.68842" lon="-0.55386">
        <ele>50.146873</ele>
        <time>2016-01-17T10:33:19Z</time>
      </trkpt>
      <trkpt lat="44.68851" lon="-0.55428">
        <ele>50.80125</ele>
        <time>2016-01-17T10:33:27Z</time>
      </trkpt>
      <trkpt lat="44.68859" lon="-0.55478">
        <ele>51</ele>
        <time>2016-01-17T10:33:36Z</time>
      </trkpt>
      <trkpt lat="44.68877" lon="-0.5555">
        <ele>51.715</ele>
        <time>2016-01-17T10:33:50Z</time>
      </trkpt>
      <trkpt lat="44.68886" lon="-0.55575">
        <ele>52</ele>
        <time>2016-01-17T10:33:55Z</time>
      </trkpt>
      <trkpt lat="44.68895" lon="-0.55611">
        <ele>52</ele>
        <time>2016-01-17T10:34:03Z</time>
      </trkpt>
      <trkpt lat="44.689" lon="-0.55625">
        <ele>52</ele>
        <time>2016-01-17T10:34:06Z</time>
      </trkpt>
      <trkpt lat="44.6891" lon="-0.55666">
        <ele>52</ele>
        <time>2016-01-17T10:34:13Z</time>
      </trkpt>
      <trkpt lat="44.68922" lon="-0.5574">
        <ele>52.697498</ele>
        <time>2016-01-17T10:34:26Z</time>
      </trkpt>
      <trkpt lat="44.68923" lon="-0.55759">
        <ele>52.9925</ele>
        <time>2016-01-17T10:34:29Z</time>
      </trkpt>
      <trkpt lat="44.68934" lon="-0.55834">
        <ele>53.165627</ele>
        <time>2016-01-17T10:34:41Z</time>
      </trkpt>
      <trkpt lat="44.68948" lon="-0.55942">
        <ele>54.866249</ele>
        <time>2016-01-17T10:34:57Z</time>
      </trkpt>
      <trkpt lat="44.68961" lon="-0.56029">
        <ele>55</ele>
        <time>2016-01-17T10:35:10Z</time>
      </trkpt>
      <trkpt lat="44.68963" lon="-0.56053">
        <ele>55</ele>
        <time>2016-01-17T10:35:14Z</time>
      </trkpt>
      <trkpt lat="44.68962" lon="-0.56075">
        <ele>55</ele>
        <time>2016-01-17T10:35:18Z</time>
      </trkpt>
      <trkpt lat="44.68956" lon="-0.56106">
        <ele>55</ele>
        <time>2016-01-17T10:35:23Z</time>
      </trkpt>
      <trkpt lat="44.68951" lon="-0.56125">
        <ele>55.077499</ele>
        <time>2016-01-17T10:35:26Z</time>
      </trkpt>
      <trkpt lat="44.68937" lon="-0.56173">
        <ele>55.380001</ele>
        <time>2016-01-17T10:35:34Z</time>
      </trkpt>
      <trkpt lat="44.68923" lon="-0.56223">
        <ele>55.426945</ele>
        <time>2016-01-17T10:35:42Z</time>
      </trkpt>
      <trkpt lat="44.68911" lon="-0.56258">
        <ele>55.07502</ele>
        <time>2016-01-17T10:35:48Z</time>
      </trkpt>
      <trkpt lat="44.68889" lon="-0.5633">
        <ele>55.386349</ele>
        <time>2016-01-17T10:35:59Z</time>
      </trkpt>
      <trkpt lat="44.68864" lon="-0.56394">
        <ele>56</ele>
        <time>2016-01-17T10:36:10Z</time>
      </trkpt>
      <trkpt lat="44.68854" lon="-0.56417">
        <ele>55.9175</ele>
        <time>2016-01-17T10:36:14Z</time>
      </trkpt>
      <trkpt lat="44.68837" lon="-0.56461">
        <ele>55.462868</ele>
        <time>2016-01-17T10:36:21Z</time>
      </trkpt>
      <trkpt lat="44.68833" lon="-0.56473">
        <ele>55.308094</ele>
        <time>2016-01-17T10:36:23Z</time>
      </trkpt>
      <trkpt lat="44.68827" lon="-0.56561">
        <ele>55.783749</ele>
        <time>2016-01-17T10:36:36Z</time>
      </trkpt>
      <trkpt lat="44.68824" lon="-0.56573">
        <ele>55.981251</ele>
        <time>2016-01-17T10:36:38Z</time>
      </trkpt>
      <trkpt lat="44.68819" lon="-0.56584">
        <ele>56</ele>
        <time>2016-01-17T10:36:40Z</time>
      </trkpt>
      <trkpt lat="44.68811" lon="-0.56592">
        <ele>56</ele>
        <time>2016-01-17T10:36:42Z</time>
      </trkpt>
      <trkpt lat="44.68801" lon="-0.56596">
        <ele>55.900219</ele>
        <time>2016-01-17T10:36:44Z</time>
      </trkpt>
      <trkpt lat="44.68791" lon="-0.56596">
        <ele>55.763828</ele>
        <time>2016-01-17T10:36:46Z</time>
      </trkpt>
      <trkpt lat="44.68759" lon="-0.56592">
        <ele>55.326248</ele>
        <time>2016-01-17T10:36:53Z</time>
      </trkpt>
      <trkpt lat="44.68749" lon="-0.56592">
        <ele>55.34375</ele>
        <time>2016-01-17T10:36:56Z</time>
      </trkpt>
      <trkpt lat="44.68742" lon="-0.56591">
        <ele>55.328751</ele>
        <time>2016-01-17T10:37:01Z</time>
      </trkpt>
      <trkpt lat="44.68728" lon="-0.56593">
        <ele>55.368752</ele>
        <time>2016-01-17T10:37:24Z</time>
      </trkpt>
      <trkpt lat="44.68726" lon="-0.56597">
        <ele>55.430626</ele>
        <time>2016-01-17T10:37:26Z</time>
      </trkpt>
      <trkpt lat="44.68725" lon="-0.56609">
        <ele>55.623749</ele>
        <time>2016-01-17T10:37:30Z</time>
      </trkpt>
      <trkpt lat="44.68726" lon="-0.56617">
        <ele>55.755627</ele>
        <time>2016-01-17T10:37:33Z</time>
      </trkpt>
      <trkpt lat="44.68736" lon="-0.56648">
        <ele>56</ele>
        <time>2016-01-17T10:37:41Z</time>
      </trkpt>
      <trkpt lat="44.68742" lon="-0.5667">
        <ele>56</ele>
        <time>2016-01-17T10:37:45Z</time>
      </trkpt>
      <trkpt lat="44.68758" lon="-0.56728">
        <ele>56.485001</ele>
        <time>2016-01-17T10:37:55Z</time>
      </trkpt>
      <trkpt lat="44.68857" lon="-0.57114">
        <ele>52.188</ele>
        <time>2016-01-17T10:38:48Z</time>
      </trkpt>
      <trkpt lat="44.68869" lon="-0.57159">
        <ele>52</ele>
        <time>2016-01-17T10:38:54Z</time>
      </trkpt>
      <trkpt lat="44.68891" lon="-0.57246">
        <ele>52</ele>
        <time>2016-01-17T10:39:06Z</time>
      </trkpt>
      <trkpt lat="44.689" lon="-0.57289">
        <ele>52</ele>
        <time>2016-01-17T10:39:12Z</time>
      </trkpt>
      <trkpt lat="44.68907" lon="-0.5731">
        <ele>52</ele>
        <time>2016-01-17T10:39:15Z</time>
      </trkpt>
      <trkpt lat="44.68959" lon="-0.57514">
        <ele>52.895</ele>
        <time>2016-01-17T10:39:43Z</time>
      </trkpt>
      <trkpt lat="44.68965" lon="-0.57547">
        <ele>53.067501</ele>
        <time>2016-01-17T10:39:47Z</time>
      </trkpt>
      <trkpt lat="44.68976" lon="-0.57585">
        <ele>53.322498</ele>
        <time>2016-01-17T10:39:52Z</time>
      </trkpt>
      <trkpt lat="44.68983" lon="-0.57621">
        <ele>53.497501</ele>
        <time>2016-01-17T10:39:57Z</time>
      </trkpt>
      <trkpt lat="44.68991" lon="-0.57654">
        <ele>53.7075</ele>
        <time>2016-01-17T10:40:03Z</time>
      </trkpt>
      <trkpt lat="44.68991" lon="-0.57662">
        <ele>53.712502</ele>
        <time>2016-01-17T10:40:05Z</time>
      </trkpt>
      <trkpt lat="44.68988" lon="-0.57669">
        <ele>53.650002</ele>
        <time>2016-01-17T10:40:07Z</time>
      </trkpt>
      <trkpt lat="44.68977" lon="-0.57672">
        <ele>53.404999</ele>
        <time>2016-01-17T10:40:11Z</time>
      </trkpt>
      <trkpt lat="44.68964" lon="-0.57672">
        <ele>53.107498</ele>
        <time>2016-01-17T10:40:15Z</time>
      </trkpt>
      <trkpt lat="44.68954" lon="-0.57673">
        <ele>53</ele>
        <time>2016-01-17T10:40:18Z</time>
      </trkpt>
      <trkpt lat="44.68922" lon="-0.57671">
        <ele>53</ele>
        <time>2016-01-17T10:40:26Z</time>
      </trkpt>
      <trkpt lat="44.68911" lon="-0.57669">
        <ele>52.927502</ele>
        <time>2016-01-17T10:40:29Z</time>
      </trkpt>
      <trkpt lat="44.68841" lon="-0.57668">
        <ele>51.377499</ele>
        <time>2016-01-17T10:40:46Z</time>
      </trkpt>
      <trkpt lat="44.68792" lon="-0.57662">
        <ele>51</ele>
        <time>2016-01-17T10:40:57Z</time>
      </trkpt>
      <trkpt lat="44.68783" lon="-0.57665">
        <ele>51</ele>
        <time>2016-01-17T10:40:59Z</time>
      </trkpt>
      <trkpt lat="44.68781" lon="-0.5767">
        <ele>51</ele>
        <time>2016-01-17T10:41:00Z</time>
      </trkpt>
      <trkpt lat="44.6878" lon="-0.57682">
        <ele>51</ele>
        <time>2016-01-17T10:41:02Z</time>
      </trkpt>
      <trkpt lat="44.68781" lon="-0.57746">
        <ele>51</ele>
        <time>2016-01-17T10:41:12Z</time>
      </trkpt>
      <trkpt lat="44.68782" lon="-0.57809">
        <ele>51.09169</ele>
        <time>2016-01-17T10:41:21Z</time>
      </trkpt>
      <trkpt lat="44.68784" lon="-0.57823">
        <ele>51.159775</ele>
        <time>2016-01-17T10:41:23Z</time>
      </trkpt>
      <trkpt lat="44.68785" lon="-0.57888">
        <ele>51.267502</ele>
        <time>2016-01-17T10:41:32Z</time>
      </trkpt>
      <trkpt lat="44.68791" lon="-0.58012">
        <ele>51.474998</ele>
        <time>2016-01-17T10:41:50Z</time>
      </trkpt>
      <trkpt lat="44.68792" lon="-0.58059">
        <ele>51.786022</ele>
        <time>2016-01-17T10:41:57Z</time>
      </trkpt>
      <trkpt lat="44.68795" lon="-0.58083">
        <ele>51.977177</ele>
        <time>2016-01-17T10:42:01Z</time>
      </trkpt>
      <trkpt lat="44.68794" lon="-0.58109">
        <ele>52.199959</ele>
        <time>2016-01-17T10:42:05Z</time>
      </trkpt>
      <trkpt lat="44.68801" lon="-0.58285">
        <ele>53.112423</ele>
        <time>2016-01-17T10:42:30Z</time>
      </trkpt>
      <trkpt lat="44.68799" lon="-0.58339">
        <ele>53.825462</ele>
        <time>2016-01-17T10:42:38Z</time>
      </trkpt>
      <trkpt lat="44.688" lon="-0.58381">
        <ele>53.884998</ele>
        <time>2016-01-17T10:42:44Z</time>
      </trkpt>
      <trkpt lat="44.68802" lon="-0.58414">
        <ele>53.952499</ele>
        <time>2016-01-17T10:42:49Z</time>
      </trkpt>
      <trkpt lat="44.68804" lon="-0.58496">
        <ele>54.040001</ele>
        <time>2016-01-17T10:43:01Z</time>
      </trkpt>
      <trkpt lat="44.68811" lon="-0.5862">
        <ele>54.149467</ele>
        <time>2016-01-17T10:43:19Z</time>
      </trkpt>
      <trkpt lat="44.68813" lon="-0.58715">
        <ele>54</ele>
        <time>2016-01-17T10:43:33Z</time>
      </trkpt>
      <trkpt lat="44.68819" lon="-0.58817">
        <ele>54.984375</ele>
        <time>2016-01-17T10:43:49Z</time>
      </trkpt>
      <trkpt lat="44.68829" lon="-0.59039">
        <ele>56.848915</ele>
        <time>2016-01-17T10:44:23Z</time>
      </trkpt>
      <trkpt lat="44.68827" lon="-0.59052">
        <ele>56.643867</ele>
        <time>2016-01-17T10:44:25Z</time>
      </trkpt>
      <trkpt lat="44.68827" lon="-0.59069">
        <ele>56.416687</ele>
        <time>2016-01-17T10:44:28Z</time>
      </trkpt>
      <trkpt lat="44.6883" lon="-0.59085">
        <ele>56.201744</ele>
        <time>2016-01-17T10:44:31Z</time>
      </trkpt>
      <trkpt lat="44.68836" lon="-0.59092">
        <ele>56.189529</ele>
        <time>2016-01-17T10:44:33Z</time>
      </trkpt>
      <trkpt lat="44.68839" lon="-0.59092">
        <ele>56.255955</ele>
        <time>2016-01-17T10:44:34Z</time>
      </trkpt>
      <trkpt lat="44.68843" lon="-0.59091">
        <ele>56.347412</ele>
        <time>2016-01-17T10:44:35Z</time>
      </trkpt>
      <trkpt lat="44.68854" lon="-0.59083">
        <ele>56.628117</ele>
        <time>2016-01-17T10:44:38Z</time>
      </trkpt>
      <trkpt lat="44.68875" lon="-0.59073">
        <ele>56.975853</ele>
        <time>2016-01-17T10:44:43Z</time>
      </trkpt>
      <trkpt lat="44.68929" lon="-0.59053">
        <ele>57</ele>
        <time>2016-01-17T10:44:55Z</time>
      </trkpt>
      <trkpt lat="44.68951" lon="-0.59043">
        <ele>57</ele>
        <time>2016-01-17T10:45:00Z</time>
      </trkpt>
      <trkpt lat="44.68988" lon="-0.59028">
        <ele>56.867226</ele>
        <time>2016-01-17T10:45:08Z</time>
      </trkpt>
      <trkpt lat="44.69038" lon="-0.59014">
        <ele>57</ele>
        <time>2016-01-17T10:45:19Z</time>
      </trkpt>
      <trkpt lat="44.69082" lon="-0.59007">
        <ele>57.52</ele>
        <time>2016-01-17T10:45:29Z</time>
      </trkpt>
      <trkpt lat="44.69144" lon="-0.59001">
        <ele>58</ele>
        <time>2016-01-17T10:45:42Z</time>
      </trkpt>
      <trkpt lat="44.69181" lon="-0.58995">
        <ele>58</ele>
        <time>2016-01-17T10:45:51Z</time>
      </trkpt>
      <trkpt lat="44.69226" lon="-0.58992">
        <ele>58</ele>
        <time>2016-01-17T10:46:00Z</time>
      </trkpt>
      <trkpt lat="44.69294" lon="-0.58982">
        <ele>58</ele>
        <time>2016-01-17T10:46:12Z</time>
      </trkpt>
      <trkpt lat="44.69315" lon="-0.58984">
        <ele>58</ele>
        <time>2016-01-17T10:46:16Z</time>
      </trkpt>
      <trkpt lat="44.69337" lon="-0.58987">
        <ele>57.822498</ele>
        <time>2016-01-17T10:46:20Z</time>
      </trkpt>
      <trkpt lat="44.6942" lon="-0.59008">
        <ele>57</ele>
        <time>2016-01-17T10:46:36Z</time>
      </trkpt>
      <trkpt lat="44.69451" lon="-0.59013">
        <ele>57</ele>
        <time>2016-01-17T10:46:42Z</time>
      </trkpt>
      <trkpt lat="44.69489" lon="-0.59022">
        <ele>57</ele>
        <time>2016-01-17T10:46:49Z</time>
      </trkpt>
      <trkpt lat="44.69512" lon="-0.59025">
        <ele>56.907501</ele>
        <time>2016-01-17T10:46:53Z</time>
      </trkpt>
      <trkpt lat="44.69536" lon="-0.59024">
        <ele>56.392502</ele>
        <time>2016-01-17T10:46:57Z</time>
      </trkpt>
      <trkpt lat="44.69576" lon="-0.59016">
        <ele>56</ele>
        <time>2016-01-17T10:47:04Z</time>
      </trkpt>
      <trkpt lat="44.69597" lon="-0.59008">
        <ele>56</ele>
        <time>2016-01-17T10:47:08Z</time>
      </trkpt>
      <trkpt lat="44.69612" lon="-0.59">
        <ele>56</ele>
        <time>2016-01-17T10:47:11Z</time>
      </trkpt>
      <trkpt lat="44.69631" lon="-0.58987">
        <ele>56</ele>
        <time>2016-01-17T10:47:15Z</time>
      </trkpt>
      <trkpt lat="44.69665" lon="-0.58958">
        <ele>55.964588</ele>
        <time>2016-01-17T10:47:23Z</time>
      </trkpt>
      <trkpt lat="44.69755" lon="-0.58864">
        <ele>56</ele>
        <time>2016-01-17T10:47:44Z</time>
      </trkpt>
      <trkpt lat="44.69767" lon="-0.58851">
        <ele>56</ele>
        <time>2016-01-17T10:47:47Z</time>
      </trkpt>
      <trkpt lat="44.69801" lon="-0.58818">
        <ele>55.627499</ele>
        <time>2016-01-17T10:47:55Z</time>
      </trkpt>
      <trkpt lat="44.69903" lon="-0.58713">
        <ele>55.997437</ele>
        <time>2016-01-17T10:48:20Z</time>
      </trkpt>
      <trkpt lat="44.69916" lon="-0.58702">
        <ele>56</ele>
        <time>2016-01-17T10:48:23Z</time>
      </trkpt>
      <trkpt lat="44.69926" lon="-0.58698">
        <ele>56</ele>
        <time>2016-01-17T10:48:25Z</time>
      </trkpt>
      <trkpt lat="44.6994" lon="-0.58696">
        <ele>56</ele>
        <time>2016-01-17T10:48:28Z</time>
      </trkpt>
      <trkpt lat="44.70012" lon="-0.58709">
        <ele>56</ele>
        <time>2016-01-17T10:48:43Z</time>
      </trkpt>
      <trkpt lat="44.70113" lon="-0.58721">
        <ele>56</ele>
        <time>2016-01-17T10:49:06Z</time>
      </trkpt>
      <trkpt lat="44.70142" lon="-0.58721">
        <ele>56</ele>
        <time>2016-01-17T10:49:13Z</time>
      </trkpt>
      <trkpt lat="44.702" lon="-0.58727">
        <ele>54.794998</ele>
        <time>2016-01-17T10:49:25Z</time>
      </trkpt>
      <trkpt lat="44.70288" lon="-0.58731">
        <ele>54.003147</ele>
        <time>2016-01-17T10:49:41Z</time>
      </trkpt>
      <trkpt lat="44.70388" lon="-0.58739">
        <ele>54.987598</ele>
        <time>2016-01-17T10:50:05Z</time>
      </trkpt>
      <trkpt lat="44.70395" lon="-0.58742">
        <ele>54.968567</ele>
        <time>2016-01-17T10:50:07Z</time>
      </trkpt>
      <trkpt lat="44.704" lon="-0.58749">
        <ele>54.943264</ele>
        <time>2016-01-17T10:50:09Z</time>
      </trkpt>
      <trkpt lat="44.70438" lon="-0.58815">
        <ele>54.916748</ele>
        <time>2016-01-17T10:50:23Z</time>
      </trkpt>
      <trkpt lat="44.70492" lon="-0.58913">
        <ele>54.305626</ele>
        <time>2016-01-17T10:50:42Z</time>
      </trkpt>
      <trkpt lat="44.70504" lon="-0.58932">
        <ele>54.013126</ele>
        <time>2016-01-17T10:50:46Z</time>
      </trkpt>
      <trkpt lat="44.7054" lon="-0.59">
        <ele>54.036251</ele>
        <time>2016-01-17T10:51:00Z</time>
      </trkpt>
      <trkpt lat="44.70552" lon="-0.59019">
        <ele>54.320625</ele>
        <time>2016-01-17T10:51:04Z</time>
      </trkpt>
      <trkpt lat="44.70556" lon="-0.59023">
        <ele>54.376251</ele>
        <time>2016-01-17T10:51:05Z</time>
      </trkpt>
      <trkpt lat="44.70565" lon="-0.59026">
        <ele>54.419998</ele>
        <time>2016-01-17T10:51:07Z</time>
      </trkpt>
      <trkpt lat="44.70605" lon="-0.59022">
        <ele>54.566799</ele>
        <time>2016-01-17T10:51:16Z</time>
      </trkpt>
      <trkpt lat="44.70612" lon="-0.59024">
        <ele>54.701111</ele>
        <time>2016-01-17T10:51:18Z</time>
      </trkpt>
      <trkpt lat="44.70619" lon="-0.59032">
        <ele>54.829399</ele>
        <time>2016-01-17T10:51:20Z</time>
      </trkpt>
      <trkpt lat="44.7062" lon="-0.59037">
        <ele>54.874603</ele>
        <time>2016-01-17T10:51:21Z</time>
      </trkpt>
      <trkpt lat="44.70628" lon="-0.59119">
        <ele>55</ele>
        <time>2016-01-17T10:51:35Z</time>
      </trkpt>
      <trkpt lat="44.70631" lon="-0.59166">
        <ele>55</ele>
        <time>2016-01-17T10:51:43Z</time>
      </trkpt>
      <trkpt lat="44.70644" lon="-0.59289">
        <ele>55</ele>
        <time>2016-01-17T10:52:05Z</time>
      </trkpt>
      <trkpt lat="44.70647" lon="-0.5934">
        <ele>55</ele>
        <time>2016-01-17T10:52:14Z</time>
      </trkpt>
      <trkpt lat="44.70645" lon="-0.59352">
        <ele>55</ele>
        <time>2016-01-17T10:52:17Z</time>
      </trkpt>
      <trkpt lat="44.70641" lon="-0.59362">
        <ele>55</ele>
        <time>2016-01-17T10:52:20Z</time>
      </trkpt>
      <trkpt lat="44.7064" lon="-0.59372">
        <ele>55</ele>
        <time>2016-01-17T10:52:24Z</time>
      </trkpt>
      <trkpt lat="44.70642" lon="-0.59386">
        <ele>55.033272</ele>
        <time>2016-01-17T10:52:28Z</time>
      </trkpt>
      <trkpt lat="44.70644" lon="-0.59387">
        <ele>55.045647</ele>
        <time>2016-01-17T10:52:29Z</time>
      </trkpt>
      <trkpt lat="44.7065" lon="-0.5939">
        <ele>55.04847</ele>
        <time>2016-01-17T10:52:32Z</time>
      </trkpt>
      <trkpt lat="44.70654" lon="-0.59403">
        <ele>55.105625</ele>
        <time>2016-01-17T10:52:35Z</time>
      </trkpt>
      <trkpt lat="44.70669" lon="-0.59553">
        <ele>55.97049</ele>
        <time>2016-01-17T10:53:02Z</time>
      </trkpt>
      <trkpt lat="44.70671" lon="-0.5957">
        <ele>55.9921</ele>
        <time>2016-01-17T10:53:05Z</time>
      </trkpt>
      <trkpt lat="44.70676" lon="-0.59626">
        <ele>56</ele>
        <time>2016-01-17T10:53:15Z</time>
      </trkpt>
      <trkpt lat="44.70683" lon="-0.59675">
        <ele>56</ele>
        <time>2016-01-17T10:53:24Z</time>
      </trkpt>
      <trkpt lat="44.7069" lon="-0.59735">
        <ele>56.556252</ele>
        <time>2016-01-17T10:53:35Z</time>
      </trkpt>
      <trkpt lat="44.70691" lon="-0.59772">
        <ele>57</ele>
        <time>2016-01-17T10:53:42Z</time>
      </trkpt>
      <trkpt lat="44.7069" lon="-0.59786">
        <ele>57</ele>
        <time>2016-01-17T10:53:45Z</time>
      </trkpt>
      <trkpt lat="44.70696" lon="-0.5981">
        <ele>57</ele>
        <time>2016-01-17T10:53:50Z</time>
      </trkpt>
      <trkpt lat="44.70696" lon="-0.59827">
        <ele>57</ele>
        <time>2016-01-17T10:53:53Z</time>
      </trkpt>
      <trkpt lat="44.70703" lon="-0.59874">
        <ele>57</ele>
        <time>2016-01-17T10:54:02Z</time>
      </trkpt>
      <trkpt lat="44.70705" lon="-0.59915">
        <ele>57.048985</ele>
        <time>2016-01-17T10:54:09Z</time>
      </trkpt>
      <trkpt lat="44.70708" lon="-0.59938">
        <ele>57.15593</ele>
        <time>2016-01-17T10:54:13Z</time>
      </trkpt>
      <trkpt lat="44.70727" lon="-0.60136">
        <ele>57</ele>
        <time>2016-01-17T10:54:42Z</time>
      </trkpt>
      <trkpt lat="44.70775" lon="-0.60486">
        <ele>56</ele>
        <time>2016-01-17T10:55:33Z</time>
      </trkpt>
      <trkpt lat="44.70795" lon="-0.60613">
        <ele>55.332035</ele>
        <time>2016-01-17T10:55:52Z</time>
      </trkpt>
      <trkpt lat="44.70801" lon="-0.60661">
        <ele>55</ele>
        <time>2016-01-17T10:56:01Z</time>
      </trkpt>
      <trkpt lat="44.70805" lon="-0.60674">
        <ele>55</ele>
        <time>2016-01-17T10:56:04Z</time>
      </trkpt>
      <trkpt lat="44.7081" lon="-0.60687">
        <ele>55</ele>
        <time>2016-01-17T10:56:08Z</time>
      </trkpt>
      <trkpt lat="44.7081" lon="-0.60696">
        <ele>55</ele>
        <time>2016-01-17T10:56:11Z</time>
      </trkpt>
      <trkpt lat="44.70811" lon="-0.607">
        <ele>55</ele>
        <time>2016-01-17T10:56:12Z</time>
      </trkpt>
      <trkpt lat="44.70819" lon="-0.60712">
        <ele>55</ele>
        <time>2016-01-17T10:56:15Z</time>
      </trkpt>
      <trkpt lat="44.70833" lon="-0.60727">
        <ele>55</ele>
        <time>2016-01-17T10:56:19Z</time>
      </trkpt>
      <trkpt lat="44.70909" lon="-0.60837">
        <ele>54</ele>
        <time>2016-01-17T10:56:43Z</time>
      </trkpt>
      <trkpt lat="44.70931" lon="-0.60864">
        <ele>54</ele>
        <time>2016-01-17T10:56:50Z</time>
      </trkpt>
      <trkpt lat="44.70953" lon="-0.60897">
        <ele>54</ele>
        <time>2016-01-17T10:56:57Z</time>
      </trkpt>
      <trkpt lat="44.7098" lon="-0.60933">
        <ele>54</ele>
        <time>2016-01-17T10:57:05Z</time>
      </trkpt>
      <trkpt lat="44.71031" lon="-0.61018">
        <ele>54</ele>
        <time>2016-01-17T10:57:21Z</time>
      </trkpt>
      <trkpt lat="44.7104" lon="-0.61034">
        <ele>54</ele>
        <time>2016-01-17T10:57:24Z</time>
      </trkpt>
      <trkpt lat="44.71055" lon="-0.61058">
        <ele>53.793751</ele>
        <time>2016-01-17T10:57:29Z</time>
      </trkpt>
      <trkpt lat="44.71063" lon="-0.61064">
        <ele>53.690624</ele>
        <time>2016-01-17T10:57:31Z</time>
      </trkpt>
      <trkpt lat="44.71084" lon="-0.61072">
        <ele>53.59</ele>
        <time>2016-01-17T10:57:35Z</time>
      </trkpt>
      <trkpt lat="44.71109" lon="-0.61088">
        <ele>53.363125</ele>
        <time>2016-01-17T10:57:40Z</time>
      </trkpt>
      <trkpt lat="44.71129" lon="-0.61113">
        <ele>52.994961</ele>
        <time>2016-01-17T10:57:45Z</time>
      </trkpt>
      <trkpt lat="44.71258" lon="-0.61296">
        <ele>49.33614</ele>
        <time>2016-01-17T10:58:14Z</time>
      </trkpt>
      <trkpt lat="44.71316" lon="-0.61374">
        <ele>47.003571</ele>
        <time>2016-01-17T10:58:28Z</time>
      </trkpt>
      <trkpt lat="44.71343" lon="-0.61406">
        <ele>46.313126</ele>
        <time>2016-01-17T10:58:35Z</time>
      </trkpt>
      <trkpt lat="44.71348" lon="-0.61409">
        <ele>46.180626</ele>
        <time>2016-01-17T10:58:36Z</time>
      </trkpt>
      <trkpt lat="44.71353" lon="-0.61408">
        <ele>46.083126</ele>
        <time>2016-01-17T10:58:37Z</time>
      </trkpt>
      <trkpt lat="44.71357" lon="-0.61406">
        <ele>46.029373</ele>
        <time>2016-01-17T10:58:38Z</time>
      </trkpt>
      <trkpt lat="44.71367" lon="-0.61393">
        <ele>46.040627</ele>
        <time>2016-01-17T10:58:41Z</time>
      </trkpt>
      <trkpt lat="44.71385" lon="-0.61361">
        <ele>46.096874</ele>
        <time>2016-01-17T10:58:47Z</time>
      </trkpt>
      <trkpt lat="44.71395" lon="-0.61346">
        <ele>45.915001</ele>
        <time>2016-01-17T10:58:50Z</time>
      </trkpt>
      <trkpt lat="44.71445" lon="-0.61262">
        <ele>45.128124</ele>
        <time>2016-01-17T10:59:05Z</time>
      </trkpt>
      <trkpt lat="44.71454" lon="-0.61254">
        <ele>44.875</ele>
        <time>2016-01-17T10:59:07Z</time>
      </trkpt>
      <trkpt lat="44.71484" lon="-0.61238">
        <ele>43.391094</ele>
        <time>2016-01-17T10:59:13Z</time>
      </trkpt>
      <trkpt lat="44.71501" lon="-0.61227">
        <ele>42.506161</ele>
        <time>2016-01-17T10:59:16Z</time>
      </trkpt>
      <trkpt lat="44.71538" lon="-0.61196">
        <ele>42.404255</ele>
        <time>2016-01-17T10:59:23Z</time>
      </trkpt>
      <trkpt lat="44.71563" lon="-0.61179">
        <ele>43.844765</ele>
        <time>2016-01-17T10:59:28Z</time>
      </trkpt>
      <trkpt lat="44.7159" lon="-0.61154">
        <ele>44.247406</ele>
        <time>2016-01-17T10:59:34Z</time>
      </trkpt>
      <trkpt lat="44.716" lon="-0.61138">
        <ele>44.461967</ele>
        <time>2016-01-17T10:59:37Z</time>
      </trkpt>
      <trkpt lat="44.71607" lon="-0.6113">
        <ele>44.525623</ele>
        <time>2016-01-17T10:59:39Z</time>
      </trkpt>
      <trkpt lat="44.71613" lon="-0.61121">
        <ele>44.668167</ele>
        <time>2016-01-17T10:59:41Z</time>
      </trkpt>
      <trkpt lat="44.7164" lon="-0.61071">
        <ele>44.151363</ele>
        <time>2016-01-17T10:59:51Z</time>
      </trkpt>
      <trkpt lat="44.71655" lon="-0.61046">
        <ele>43.362602</ele>
        <time>2016-01-17T10:59:56Z</time>
      </trkpt>
      <trkpt lat="44.71676" lon="-0.61019">
        <ele>42.39896</ele>
        <time>2016-01-17T11:00:02Z</time>
      </trkpt>
      <trkpt lat="44.71693" lon="-0.60994">
        <ele>42.287167</ele>
        <time>2016-01-17T11:00:07Z</time>
      </trkpt>
      <trkpt lat="44.71744" lon="-0.60925">
        <ele>42.908337</ele>
        <time>2016-01-17T11:00:23Z</time>
      </trkpt>
      <trkpt lat="44.7175" lon="-0.60915">
        <ele>43.074635</ele>
        <time>2016-01-17T11:00:25Z</time>
      </trkpt>
      <trkpt lat="44.71764" lon="-0.60897">
        <ele>43.079475</ele>
        <time>2016-01-17T11:00:29Z</time>
      </trkpt>
      <trkpt lat="44.718" lon="-0.60844">
        <ele>41.776951</ele>
        <time>2016-01-17T11:00:39Z</time>
      </trkpt>
      <trkpt lat="44.71811" lon="-0.60826">
        <ele>41.434349</ele>
        <time>2016-01-17T11:00:42Z</time>
      </trkpt>
      <trkpt lat="44.71832" lon="-0.60796">
        <ele>41.327007</ele>
        <time>2016-01-17T11:00:49Z</time>
      </trkpt>
      <trkpt lat="44.71847" lon="-0.60781">
        <ele>41.510624</ele>
        <time>2016-01-17T11:00:55Z</time>
      </trkpt>
      <trkpt lat="44.71885" lon="-0.60725">
        <ele>43.633968</ele>
        <time>2016-01-17T11:01:12Z</time>
      </trkpt>
      <trkpt lat="44.7189" lon="-0.60716">
        <ele>43.856873</ele>
        <time>2016-01-17T11:01:14Z</time>
      </trkpt>
      <trkpt lat="44.71984" lon="-0.60584">
        <ele>42.204689</ele>
        <time>2016-01-17T11:01:46Z</time>
      </trkpt>
      <trkpt lat="44.71987" lon="-0.60581">
        <ele>42.115002</ele>
        <time>2016-01-17T11:01:47Z</time>
      </trkpt>
      <trkpt lat="44.7199" lon="-0.60581">
        <ele>41.980625</ele>
        <time>2016-01-17T11:01:48Z</time>
      </trkpt>
      <trkpt lat="44.71995" lon="-0.60587">
        <ele>41.643124</ele>
        <time>2016-01-17T11:01:50Z</time>
      </trkpt>
      <trkpt lat="44.72012" lon="-0.60631">
        <ele>40.161877</ele>
        <time>2016-01-17T11:01:59Z</time>
      </trkpt>
      <trkpt lat="44.72019" lon="-0.60652">
        <ele>39.506248</ele>
        <time>2016-01-17T11:02:03Z</time>
      </trkpt>
      <trkpt lat="44.72054" lon="-0.6074">
        <ele>37.060001</ele>
        <time>2016-01-17T11:02:19Z</time>
      </trkpt>
      <trkpt lat="44.72072" lon="-0.60792">
        <ele>35.855625</ele>
        <time>2016-01-17T11:02:28Z</time>
      </trkpt>
      <trkpt lat="44.72104" lon="-0.60871">
        <ele>34.91898</ele>
        <time>2016-01-17T11:02:41Z</time>
      </trkpt>
      <trkpt lat="44.72114" lon="-0.60889">
        <ele>35</ele>
        <time>2016-01-17T11:02:45Z</time>
      </trkpt>
      <trkpt lat="44.7213" lon="-0.60914">
        <ele>35.014103</ele>
        <time>2016-01-17T11:02:51Z</time>
      </trkpt>
      <trkpt lat="44.72155" lon="-0.60941">
        <ele>35.417</ele>
        <time>2016-01-17T11:03:01Z</time>
      </trkpt>
      <trkpt lat="44.72165" lon="-0.60955">
        <ele>35.830624</ele>
        <time>2016-01-17T11:03:06Z</time>
      </trkpt>
      <trkpt lat="44.72175" lon="-0.60979">
        <ele>36.438751</ele>
        <time>2016-01-17T11:03:13Z</time>
      </trkpt>
      <trkpt lat="44.72212" lon="-0.61081">
        <ele>39.21875</ele>
        <time>2016-01-17T11:03:42Z</time>
      </trkpt>
      <trkpt lat="44.72216" lon="-0.61087">
        <ele>39.490623</ele>
        <time>2016-01-17T11:03:44Z</time>
      </trkpt>
      <trkpt lat="44.72224" lon="-0.61106">
        <ele>40.143124</ele>
        <time>2016-01-17T11:03:49Z</time>
      </trkpt>
      <trkpt lat="44.72232" lon="-0.61137">
        <ele>40.676071</ele>
        <time>2016-01-17T11:03:58Z</time>
      </trkpt>
      <trkpt lat="44.72235" lon="-0.61153">
        <ele>40.806324</ele>
        <time>2016-01-17T11:04:02Z</time>
      </trkpt>
      <trkpt lat="44.72246" lon="-0.61193">
        <ele>41.541962</ele>
        <time>2016-01-17T11:04:13Z</time>
      </trkpt>
      <trkpt lat="44.72256" lon="-0.61217">
        <ele>42.184025</ele>
        <time>2016-01-17T11:04:21Z</time>
      </trkpt>
      <trkpt lat="44.72264" lon="-0.61231">
        <ele>42.530403</ele>
        <time>2016-01-17T11:04:26Z</time>
      </trkpt>
      <trkpt lat="44.72276" lon="-0.61267">
        <ele>43.262009</ele>
        <time>2016-01-17T11:04:35Z</time>
      </trkpt>
      <trkpt lat="44.72283" lon="-0.61282">
        <ele>43.758125</ele>
        <time>2016-01-17T11:04:39Z</time>
      </trkpt>
      <trkpt lat="44.72295" lon="-0.61295">
        <ele>44.485001</ele>
        <time>2016-01-17T11:04:44Z</time>
      </trkpt>
      <trkpt lat="44.72321" lon="-0.61339">
        <ele>46.365002</ele>
        <time>2016-01-17T11:04:58Z</time>
      </trkpt>
      <trkpt lat="44.72328" lon="-0.61347">
        <ele>46.763752</ele>
        <time>2016-01-17T11:05:01Z</time>
      </trkpt>
      <trkpt lat="44.72337" lon="-0.61364">
        <ele>47.228127</ele>
        <time>2016-01-17T11:05:06Z</time>
      </trkpt>
      <trkpt lat="44.72348" lon="-0.61378">
        <ele>47.4925</ele>
        <time>2016-01-17T11:05:10Z</time>
      </trkpt>
      <trkpt lat="44.72375" lon="-0.61432">
        <ele>48.160625</ele>
        <time>2016-01-17T11:05:24Z</time>
      </trkpt>
      <trkpt lat="44.72379" lon="-0.61439">
        <ele>48.38625</ele>
        <time>2016-01-17T11:05:26Z</time>
      </trkpt>
      <trkpt lat="44.7239" lon="-0.61463">
        <ele>49.005001</ele>
        <time>2016-01-17T11:05:32Z</time>
      </trkpt>
      <trkpt lat="44.72394" lon="-0.61475">
        <ele>49.282501</ele>
        <time>2016-01-17T11:05:35Z</time>
      </trkpt>
      <trkpt lat="44.72399" lon="-0.61495">
        <ele>49.702499</ele>
        <time>2016-01-17T11:05:40Z</time>
      </trkpt>
      <trkpt lat="44.72412" lon="-0.61589">
        <ele>50.023098</ele>
        <time>2016-01-17T11:06:01Z</time>
      </trkpt>
      <trkpt lat="44.72415" lon="-0.61628">
        <ele>50.147499</ele>
        <time>2016-01-17T11:06:09Z</time>
      </trkpt>
      <trkpt lat="44.72429" lon="-0.61693">
        <ele>50.477501</ele>
        <time>2016-01-17T11:06:22Z</time>
      </trkpt>
      <trkpt lat="44.72437" lon="-0.61723">
        <ele>50.682499</ele>
        <time>2016-01-17T11:06:28Z</time>
      </trkpt>
      <trkpt lat="44.72442" lon="-0.61749">
        <ele>50.802502</ele>
        <time>2016-01-17T11:06:33Z</time>
      </trkpt>
      <trkpt lat="44.72449" lon="-0.61777">
        <ele>50.987568</ele>
        <time>2016-01-17T11:06:39Z</time>
      </trkpt>
      <trkpt lat="44.72462" lon="-0.61842">
        <ele>51.928833</ele>
        <time>2016-01-17T11:06:52Z</time>
      </trkpt>
      <trkpt lat="44.72481" lon="-0.61912">
        <ele>52.898514</ele>
        <time>2016-01-17T11:07:06Z</time>
      </trkpt>
      <trkpt lat="44.72487" lon="-0.61983">
        <ele>53</ele>
        <time>2016-01-17T11:07:19Z</time>
      </trkpt>
      <trkpt lat="44.72489" lon="-0.62027">
        <ele>53.376022</ele>
        <time>2016-01-17T11:07:28Z</time>
      </trkpt>
      <trkpt lat="44.72485" lon="-0.62071">
        <ele>54.072628</ele>
        <time>2016-01-17T11:07:36Z</time>
      </trkpt>
    </trkseg>
  </trk>
</gpx>